Wetterdaten: aktuell Sonntag, 18.08.2019 07:02
Datum Zeit Temp. Aussen Temp. o. S. +5cm Feuchte Auss Luftdruck Regen Sonnenschein Regendauer Solar Windben Empfang
18.08.2019 07:02 14,3 C 13,3 C 12,8 C 97 % 1013,2 hPa 0,0 l/m 0 min 0 min 7 W/m 0,0 km/h (0 Bft) 95,74 %
18.08.2019 07:00 14,3 C 13,3 C 12,8 C 97 % 1013,1 hPa 0,0 l/m 0 min 0 min 7 W/m 6,4 km/h (2 Bft) 95,74 %
18.08.2019 06:58 14,3 C 13,3 C 12,8 C 97 % 1013,2 hPa 0,0 l/m 0 min 0 min 5 W/m 6,4 km/h (2 Bft) 97,87 %
18.08.2019 06:56 14,3 C 13,3 C 12,8 C 97 % 1013,2 hPa 0,0 l/m 0 min 0 min 5 W/m 3,2 km/h (1 Bft) 93,48 %
18.08.2019 06:54 14,3 C 13,3 C 12,8 C 97 % 1013,3 hPa 0,0 l/m 0 min 0 min 5 W/m 9,7 km/h (2 Bft) 97,87 %
18.08.2019 06:52 14,4 C 13,3 C 12,8 C 97 % 1013,5 hPa 0,0 l/m 0 min 0 min 5 W/m 9,7 km/h (2 Bft) 97,87 %
18.08.2019 06:50 14,4 C 13,3 C 12,8 C 97 % 1013,5 hPa 0,0 l/m 0 min 0 min 5 W/m 9,7 km/h (2 Bft) 95,74 %
18.08.2019 06:48 14,4 C 13,3 C 12,8 C 97 % 1013,6 hPa 0,0 l/m 0 min 0 min 1 W/m 9,7 km/h (2 Bft) 97,87 %
18.08.2019 06:46 14,4 C 13,3 C 12,8 C 97 % 1013,6 hPa 0,0 l/m 0 min 0 min 2 W/m 6,4 km/h (2 Bft) 97,87 %
18.08.2019 06:44 14,4 C 13,3 C 12,8 C 97 % 1013,7 hPa 0,0 l/m 0 min 0 min 0 W/m 3,2 km/h (1 Bft) 100,00 %
18.08.2019 06:42 14,4 C 13,3 C 12,8 C 97 % 1013,8 hPa 0,0 l/m 0 min 0 min 0 W/m 3,2 km/h (1 Bft) 97,87 %
18.08.2019 06:40 14,4 C 13,3 C 12,8 C 97 % 1013,7 hPa 0,0 l/m 0 min 0 min 0 W/m 3,2 km/h (1 Bft) 97,87 %
18.08.2019 06:38 14,5 C 13,3 C 12,8 C 97 % 1013,7 hPa 0,0 l/m 0 min 2 min 0 W/m 3,2 km/h (1 Bft) 100,00 %
18.08.2019 06:36 14,5 C 13,3 C 12,8 C 97 % 1013,7 hPa 0,0 l/m 0 min 2 min 0 W/m 6,4 km/h (2 Bft) 97,87 %
18.08.2019 06:34 14,5 C 13,3 C 12,8 C 97 % 1013,7 hPa 0,0 l/m 0 min 2 min 0 W/m 6,4 km/h (2 Bft) 100,00 %
18.08.2019 06:32 14,5 C 13,3 C 12,8 C 97 % 1013,8 hPa 0,0 l/m 0 min 2 min 0 W/m 3,2 km/h (1 Bft) 97,83 %
18.08.2019 06:30 14,5 C 13,3 C 12,8 C 97 % 1013,8 hPa 0,0 l/m 0 min 2 min 0 W/m 6,4 km/h (2 Bft) 97,87 %
18.08.2019 06:28 14,5 C 13,3 C 12,8 C 97 % 1013,7 hPa 0,0 l/m 0 min 2 min 0 W/m 6,4 km/h (2 Bft) 100,00 %
18.08.2019 06:26 14,5 C 13,3 C 12,8 C 96 % 1013,7 hPa 0,0 l/m 0 min 2 min 0 W/m 6,4 km/h (2 Bft) 100,00 %
18.08.2019 06:24 14,5 C 13,3 C 12,8 C 96 % 1013,5 hPa 0,0 l/m 0 min 2 min 0 W/m 12,9 km/h (3 Bft) 100,00 %
18.08.2019 06:22 14,5 C 13,3 C 13,3 C 96 % 1013,3 hPa 0,2 l/m 0 min 2 min 0 W/m 6,4 km/h (2 Bft) 97,87 %
18.08.2019 06:20 14,5 C 13,3 C 12,8 C 96 % 1013,3 hPa 0,0 l/m 0 min 2 min 0 W/m 9,7 km/h (2 Bft) 100,00 %
18.08.2019 06:18 14,5 C 13,3 C 13,3 C 96 % 1013,8 hPa 0,0 l/m 0 min 2 min 0 W/m 0,0 km/h (0 Bft) 97,87 %
18.08.2019 06:16 14,5 C 13,3 C 12,8 C 96 % 1014,0 hPa 0,0 l/m 0 min 2 min 0 W/m 3,2 km/h (1 Bft) 100,00 %
18.08.2019 06:14 14,5 C 13,3 C 12,8 C 96 % 1014,0 hPa 0,0 l/m 0 min 2 min 0 W/m 3,2 km/h (1 Bft) 100,00 %
18.08.2019 06:12 14,5 C 13,3 C 12,8 C 96 % 1014,0 hPa 0,0 l/m 0 min 2 min 0 W/m 3,2 km/h (1 Bft) 100,00 %
18.08.2019 06:10 14,6 C 13,3 C 12,8 C 96 % 1014,0 hPa 0,0 l/m 0 min 2 min 0 W/m 0,0 km/h (0 Bft) 100,00 %
18.08.2019 06:08 14,6 C 13,3 C 12,8 C 96 % 1014,0 hPa 0,0 l/m 0 min 4 min 0 W/m 0,0 km/h (0 Bft) 96,77 %
18.08.2019 06:04 14,6 C 13,3 C 12,8 C 96 % 1013,8 hPa 0,0 l/m 0 min 2 min 0 W/m 6,4 km/h (2 Bft) 100,00 %
18.08.2019 06:02 14,6 C 13,3 C 12,8 C 96 % 1013,8 hPa 0,0 l/m 0 min 2 min 0 W/m 9,7 km/h (2 Bft) 97,87 %
18.08.2019 06:00 14,6 C 13,3 C 12,8 C 96 % 1013,8 hPa 0,0 l/m 0 min 2 min 0 W/m 9,7 km/h (2 Bft) 100,00 %
18.08.2019 05:58 14,6 C 13,3 C 13,3 C 96 % 1013,8 hPa 0,0 l/m 0 min 2 min 0 W/m 6,4 km/h (2 Bft) 100,00 %
18.08.2019 05:56 14,6 C 13,3 C 13,3 C 96 % 1013,9 hPa 0,2 l/m 0 min 2 min 0 W/m 6,4 km/h (2 Bft) 95,65 %
18.08.2019 05:54 14,6 C 13,3 C 12,8 C 96 % 1013,9 hPa 0,0 l/m 0 min 2 min 0 W/m 6,4 km/h (2 Bft) 97,87 %
18.08.2019 05:52 14,6 C 13,3 C 12,8 C 96 % 1014,0 hPa 0,0 l/m 0 min 2 min 0 W/m 6,4 km/h (2 Bft) 97,87 %
18.08.2019 05:50 14,6 C 13,3 C 13,3 C 96 % 1014,0 hPa 0,2 l/m 0 min 2 min 0 W/m 6,4 km/h (2 Bft) 95,74 %
18.08.2019 05:48 14,6 C 13,3 C 13,3 C 96 % 1014,1 hPa 0,0 l/m 0 min 2 min 0 W/m 3,2 km/h (1 Bft) 93,62 %
18.08.2019 05:46 14,6 C 13,3 C 12,8 C 96 % 1014,2 hPa 0,2 l/m 0 min 2 min 0 W/m 3,2 km/h (1 Bft) 97,83 %
18.08.2019 05:44 14,6 C 13,3 C 12,8 C 96 % 1014,2 hPa 0,0 l/m 0 min 2 min 0 W/m 6,4 km/h (2 Bft) 97,87 %
18.08.2019 05:42 14,6 C 13,3 C 12,8 C 96 % 1014,3 hPa 0,2 l/m 0 min 2 min 0 W/m 9,7 km/h (2 Bft) 95,74 %
18.08.2019 05:40 14,6 C 13,3 C 13,3 C 96 % 1014,2 hPa 0,0 l/m 0 min 2 min 0 W/m 6,4 km/h (2 Bft) 97,87 %
18.08.2019 05:38 14,6 C 13,3 C 12,8 C 96 % 1014,2 hPa 0,0 l/m 0 min 2 min 0 W/m 3,2 km/h (1 Bft) 97,87 %
18.08.2019 05:36 14,7 C 13,3 C 13,3 C 96 % 1014,1 hPa 0,0 l/m 0 min 2 min 0 W/m 6,4 km/h (2 Bft) 95,74 %
18.08.2019 05:34 14,7 C 13,3 C 13,3 C 96 % 1014,1 hPa 0,0 l/m 0 min 2 min 0 W/m 3,2 km/h (1 Bft) 97,83 %
18.08.2019 05:32 14,7 C 13,3 C 12,8 C 96 % 1014,0 hPa 0,0 l/m 0 min 2 min 0 W/m 0,0 km/h (0 Bft) 95,74 %
18.08.2019 05:30 14,7 C 13,3 C 12,8 C 96 % 1013,9 hPa 0,0 l/m 0 min 0 min 0 W/m 3,2 km/h (1 Bft) 97,87 %
18.08.2019 05:28 14,7 C 13,3 C 12,8 C 96 % 1013,9 hPa 0,0 l/m 0 min 0 min 0 W/m 3,2 km/h (1 Bft) 95,74 %
18.08.2019 05:26 14,7 C 13,3 C 13,3 C 96 % 1014,0 hPa 0,0 l/m 0 min 2 min 0 W/m 0,0 km/h (0 Bft) 93,62 %
18.08.2019 05:24 14,7 C 13,3 C 13,3 C 96 % 1013,9 hPa 0,0 l/m 0 min 2 min 0 W/m 0,0 km/h (0 Bft) 97,87 %
18.08.2019 05:22 14,7 C 13,3 C 12,8 C 96 % 1013,9 hPa 0,2 l/m 0 min 2 min 0 W/m 3,2 km/h (1 Bft) 97,83 %
18.08.2019 05:20 14,8 C 13,3 C 13,3 C 96 % 1014,0 hPa 0,0 l/m 0 min 2 min 0 W/m 0,0 km/h (0 Bft) 97,87 %
18.08.2019 05:18 14,8 C 13,3 C 13,3 C 96 % 1014,0 hPa 0,0 l/m 0 min 2 min 0 W/m 3,2 km/h (1 Bft) 97,87 %
18.08.2019 05:16 14,8 C 13,3 C 13,3 C 96 % 1014,0 hPa 0,2 l/m 0 min 2 min 0 W/m 0,0 km/h (0 Bft) 91,49 %
18.08.2019 05:14 14,8 C 13,3 C 13,3 C 96 % 1014,1 hPa 0,0 l/m 0 min 2 min 0 W/m 3,2 km/h (1 Bft) 97,87 %
18.08.2019 05:12 14,8 C 13,3 C 13,3 C 95 % 1014,3 hPa 0,2 l/m 0 min 2 min 0 W/m 6,4 km/h (2 Bft) 95,74 %
18.08.2019 05:10 14,8 C 13,3 C 13,3 C 95 % 1014,4 hPa 0,0 l/m 0 min 2 min 0 W/m 0,0 km/h (0 Bft) 95,65 %
18.08.2019 05:08 14,8 C 13,3 C 13,3 C 95 % 1014,4 hPa 0,2 l/m 0 min 2 min 0 W/m 3,2 km/h (1 Bft) 95,74 %
18.08.2019 05:06 14,9 C 13,3 C 13,3 C 95 % 1014,4 hPa 0,0 l/m 0 min 2 min 0 W/m 3,2 km/h (1 Bft) 97,87 %
18.08.2019 05:04 14,9 C 13,3 C 13,3 C 95 % 1014,4 hPa 0,2 l/m 0 min 2 min 0 W/m 6,4 km/h (2 Bft) 97,87 %
18.08.2019 05:02 14,9 C 13,3 C 13,3 C 95 % 1014,4 hPa 0,0 l/m 0 min 2 min 0 W/m 12,9 km/h (3 Bft) 97,87 %
18.08.2019 05:00 14,9 C 13,3 C 13,3 C 95 % 1014,4 hPa 0,2 l/m 0 min 2 min 0 W/m 3,2 km/h (1 Bft) 95,74 %
18.08.2019 04:58 14,9 C 13,3 C 13,3 C 95 % 1014,4 hPa 0,0 l/m 0 min 2 min 0 W/m 0,0 km/h (0 Bft) 97,83 %
18.08.2019 04:56 15,0 C 13,3 C 13,3 C 95 % 1014,5 hPa 0,0 l/m 0 min 2 min 0 W/m 3,2 km/h (1 Bft) 97,87 %
18.08.2019 04:54 15,0 C 13,3 C 13,3 C 95 % 1014,4 hPa 0,2 l/m 0 min 2 min 0 W/m 6,4 km/h (2 Bft) 97,87 %
18.08.2019 04:52 15,1 C 13,3 C 13,3 C 95 % 1014,4 hPa 0,0 l/m 0 min 2 min 0 W/m 6,4 km/h (2 Bft) 97,87 %
18.08.2019 04:50 15,1 C 13,3 C 13,3 C 95 % 1014,5 hPa 0,2 l/m 0 min 2 min 0 W/m 6,4 km/h (2 Bft) 97,87 %
18.08.2019 04:48 15,1 C 13,3 C 13,3 C 95 % 1014,5 hPa 0,0 l/m 0 min 2 min 0 W/m 3,2 km/h (1 Bft) 97,83 %
18.08.2019 04:46 15,1 C 13,3 C 13,3 C 95 % 1014,6 hPa 0,2 l/m 0 min 2 min 0 W/m 3,2 km/h (1 Bft) 97,87 %
18.08.2019 04:44 15,2 C 13,3 C 13,3 C 95 % 1014,6 hPa 0,0 l/m 0 min 2 min 0 W/m 6,4 km/h (2 Bft) 97,87 %
18.08.2019 04:42 15,2 C 13,3 C 13,3 C 95 % 1014,6 hPa 0,2 l/m 0 min 2 min 0 W/m 3,2 km/h (1 Bft) 93,62 %
18.08.2019 04:40 15,2 C 13,3 C 13,3 C 95 % 1014,5 hPa 0,0 l/m 0 min 2 min 0 W/m 3,2 km/h (1 Bft) 95,74 %
18.08.2019 04:38 15,2 C 13,3 C 13,3 C 95 % 1014,5 hPa 0,2 l/m 0 min 2 min 0 W/m 3,2 km/h (1 Bft) 95,74 %
18.08.2019 04:36 15,3 C 13,3 C 13,3 C 95 % 1014,5 hPa 0,2 l/m 0 min 2 min 0 W/m 3,2 km/h (1 Bft) 91,30 %
18.08.2019 04:34 15,3 C 13,3 C 13,9 C 95 % 1014,5 hPa 0,0 l/m 0 min 2 min 0 W/m 0,0 km/h (0 Bft) 91,49 %
18.08.2019 04:32 15,3 C 13,9 C 13,9 C 95 % 1014,4 hPa 0,2 l/m 0 min 2 min 0 W/m 6,4 km/h (2 Bft) 91,49 %
18.08.2019 04:30 15,4 C 13,9 C 13,9 C 95 % 1014,5 hPa 0,2 l/m 0 min 2 min 0 W/m 6,4 km/h (2 Bft) 95,74 %
18.08.2019 04:28 15,4 C 13,9 C 13,9 C 95 % 1014,5 hPa 0,2 l/m 0 min 2 min 0 W/m 6,4 km/h (2 Bft) 95,74 %
18.08.2019 04:26 15,5 C 13,9 C 13,9 C 95 % 1014,5 hPa 0,2 l/m 0 min 2 min 0 W/m 3,2 km/h (1 Bft) 95,74 %
18.08.2019 04:24 15,5 C 13,9 C 13,9 C 95 % 1014,5 hPa 0,2 l/m 0 min 2 min 0 W/m 9,7 km/h (2 Bft) 95,65 %
18.08.2019 04:22 15,6 C 13,9 C 13,9 C 95 % 1014,4 hPa 0,0 l/m 0 min 2 min 0 W/m 9,7 km/h (2 Bft) 95,74 %
18.08.2019 04:20 15,6 C 13,9 C 13,9 C 95 % 1014,4 hPa 0,2 l/m 0 min 2 min 0 W/m 16,1 km/h (3 Bft) 95,74 %
18.08.2019 04:18 15,6 C 13,9 C 13,9 C 95 % 1014,4 hPa 0,2 l/m 0 min 2 min 0 W/m 3,2 km/h (1 Bft) 93,62 %
18.08.2019 04:16 15,7 C 13,9 C 13,9 C 95 % 1014,4 hPa 0,0 l/m 0 min 2 min 0 W/m 6,4 km/h (2 Bft) 97,87 %
18.08.2019 04:14 15,7 C 13,9 C 13,9 C 95 % 1014,5 hPa 0,2 l/m 0 min 2 min 0 W/m 6,4 km/h (2 Bft) 95,74 %
18.08.2019 04:12 15,7 C 13,9 C 13,9 C 95 % 1014,5 hPa 0,2 l/m 0 min 2 min 0 W/m 6,4 km/h (2 Bft) 97,83 %
18.08.2019 04:10 15,8 C 13,9 C 13,9 C 94 % 1014,5 hPa 0,2 l/m 0 min 2 min 0 W/m 6,4 km/h (2 Bft) 97,87 %
18.08.2019 04:08 15,8 C 13,9 C 13,9 C 94 % 1014,5 hPa 0,0 l/m 0 min 2 min 0 W/m 9,7 km/h (2 Bft) 100,00 %
18.08.2019 04:06 15,8 C 13,9 C 13,9 C 94 % 1014,5 hPa 0,2 l/m 0 min 2 min 0 W/m 9,7 km/h (2 Bft) 100,00 %
18.08.2019 04:04 15,9 C 13,9 C 13,9 C 94 % 1014,5 hPa 0,0 l/m 0 min 2 min 0 W/m 9,7 km/h (2 Bft) 100,00 %
18.08.2019 04:02 15,9 C 13,9 C 13,9 C 94 % 1014,5 hPa 0,0 l/m 0 min 2 min 0 W/m 3,2 km/h (1 Bft) 100,00 %
18.08.2019 04:00 16,0 C 13,9 C 13,9 C 94 % 1014,4 hPa 0,0 l/m 0 min 2 min 0 W/m 3,2 km/h (1 Bft) 95,74 %
18.08.2019 03:58 16,1 C 13,9 C 14,4 C 94 % 1014,4 hPa 0,2 l/m 0 min 2 min 0 W/m 3,2 km/h (1 Bft) 97,87 %
18.08.2019 03:56 16,1 C 14,4 C 14,4 C 94 % 1014,3 hPa 0,0 l/m 0 min 2 min 0 W/m 3,2 km/h (1 Bft) 97,87 %
18.08.2019 03:54 16,1 C 14,4 C 14,4 C 94 % 1014,3 hPa 0,2 l/m 0 min 2 min 0 W/m 3,2 km/h (1 Bft) 97,87 %
18.08.2019 03:52 16,2 C 14,4 C 14,4 C 94 % 1014,3 hPa 0,0 l/m 0 min 2 min 0 W/m 3,2 km/h (1 Bft) 97,87 %
18.08.2019 03:50 16,2 C 14,4 C 14,4 C 94 % 1014,2 hPa 0,2 l/m 0 min 2 min 0 W/m 6,4 km/h (2 Bft) 97,87 %
18.08.2019 03:48 16,2 C 14,4 C 14,4 C 94 % 1014,2 hPa 0,0 l/m 0 min 2 min 0 W/m 3,2 km/h (1 Bft) 97,83 %
18.08.2019 03:46 16,3 C 14,4 C 14,4 C 94 % 1014,1 hPa 0,0 l/m 0 min 2 min 0 W/m 6,4 km/h (2 Bft) 97,87 %
18.08.2019 03:44 16,3 C 14,4 C 14,4 C 94 % 1014,1 hPa 0,2 l/m 0 min 2 min 0 W/m 6,4 km/h (2 Bft) 95,74 %
18.08.2019 03:42 16,4 C 14,4 C 14,4 C 93 % 1014,1 hPa 0,0 l/m 0 min 2 min 0 W/m 6,4 km/h (2 Bft) 97,87 %
18.08.2019 03:40 16,4 C 14,4 C 14,4 C 93 % 1014,2 hPa 0,2 l/m 0 min 2 min 0 W/m 3,2 km/h (1 Bft) 100,00 %
18.08.2019 03:38 16,5 C 14,4 C 14,4 C 93 % 1014,2 hPa 0,0 l/m 0 min 2 min 0 W/m 6,4 km/h (2 Bft) 97,83 %
18.08.2019 03:36 16,6 C 14,4 C 14,4 C 93 % 1014,1 hPa 0,2 l/m 0 min 2 min 0 W/m 6,4 km/h (2 Bft) 97,87 %
18.08.2019 03:34 16,7 C 14,4 C 14,4 C 93 % 1014,1 hPa 0,2 l/m 0 min 2 min 0 W/m 6,4 km/h (2 Bft) 100,00 %
18.08.2019 03:32 16,7 C 14,4 C 14,4 C 93 % 1014,0 hPa 0,0 l/m 0 min 2 min 0 W/m 3,2 km/h (1 Bft) 97,87 %
18.08.2019 03:30 16,7 C 14,4 C 14,4 C 93 % 1014,0 hPa 0,0 l/m 0 min 2 min 0 W/m 3,2 km/h (1 Bft) 97,87 %
18.08.2019 03:28 16,8 C 14,4 C 14,4 C 93 % 1013,9 hPa 0,0 l/m 0 min 2 min 0 W/m 0,0 km/h (0 Bft) 97,87 %
18.08.2019 03:26 16,8 C 14,4 C 14,4 C 93 % 1013,8 hPa 0,0 l/m 0 min 2 min 0 W/m 0,0 km/h (0 Bft) 100,00 %
18.08.2019 03:24 16,8 C 14,4 C 14,4 C 93 % 1013,9 hPa 0,0 l/m 0 min 2 min 0 W/m 0,0 km/h (0 Bft) 100,00 %
18.08.2019 03:22 16,9 C 14,4 C 14,4 C 93 % 1013,9 hPa 0,0 l/m 0 min 2 min 0 W/m 0,0 km/h (0 Bft) 97,87 %
18.08.2019 03:20 16,9 C 14,4 C 14,4 C 93 % 1013,9 hPa 0,2 l/m 0 min 2 min 0 W/m 0,0 km/h (0 Bft) 97,87 %
18.08.2019 03:18 17,0 C 14,4 C 14,4 C 93 % 1014,0 hPa 0,0 l/m 0 min 2 min 0 W/m 3,2 km/h (1 Bft) 97,87 %
18.08.2019 03:16 17,1 C 15,0 C 15,0 C 93 % 1014,0 hPa 0,2 l/m 0 min 2 min 0 W/m 0,0 km/h (0 Bft) 100,00 %
18.08.2019 03:14 17,1 C 14,4 C 15,0 C 92 % 1014,0 hPa 0,0 l/m 0 min 2 min 0 W/m 0,0 km/h (0 Bft) 100,00 %
18.08.2019 03:12 17,2 C 14,4 C 14,4 C 92 % 1014,0 hPa 0,0 l/m 0 min 2 min 0 W/m 3,2 km/h (1 Bft) 97,87 %
18.08.2019 03:10 17,3 C 14,4 C 14,4 C 92 % 1014,0 hPa 0,0 l/m 0 min 2 min 0 W/m 3,2 km/h (1 Bft) 100,00 %
18.08.2019 03:08 17,3 C 15,0 C 15,0 C 92 % 1014,0 hPa 0,2 l/m 0 min 2 min 0 W/m 0,0 km/h (0 Bft) 97,87 %
18.08.2019 03:06 17,4 C 15,0 C 15,0 C 92 % 1014,0 hPa 0,2 l/m 0 min 2 min 0 W/m 3,2 km/h (1 Bft) 97,87 %
18.08.2019 03:04 17,6 C 15,0 C 15,0 C 92 % 1014,0 hPa 0,0 l/m 0 min 2 min 0 W/m 6,4 km/h (2 Bft) 97,87 %
18.08.2019 03:02 17,7 C 15,0 C 15,0 C 92 % 1014,0 hPa 0,0 l/m 0 min 2 min 0 W/m 3,2 km/h (1 Bft) 97,83 %
18.08.2019 03:00 17,8 C 15,0 C 15,0 C 92 % 1013,9 hPa 0,2 l/m 0 min 2 min 0 W/m 12,9 km/h (3 Bft) 97,87 %
18.08.2019 02:58 17,9 C 15,0 C 15,0 C 92 % 1013,9 hPa 0,0 l/m 0 min 2 min 0 W/m 3,2 km/h (1 Bft) 97,87 %
18.08.2019 02:56 18,0 C 15,0 C 15,0 C 92 % 1014,0 hPa 0,0 l/m 0 min 2 min 0 W/m 6,4 km/h (2 Bft) 95,74 %
18.08.2019 02:54 18,1 C 15,0 C 15,0 C 92 % 1014,0 hPa 0,2 l/m 0 min 2 min 0 W/m 12,9 km/h (3 Bft) 97,87 %
18.08.2019 02:52 18,2 C 15,6 C 15,6 C 92 % 1014,1 hPa 0,0 l/m 0 min 2 min 0 W/m 6,4 km/h (2 Bft) 97,87 %
18.08.2019 02:50 18,3 C 15,6 C 15,6 C 92 % 1014,1 hPa 0,4 l/m 0 min 2 min 0 W/m 12,9 km/h (3 Bft) 95,65 %
18.08.2019 02:48 18,4 C 15,6 C 15,6 C 93 % 1014,1 hPa 0,4 l/m 0 min 2 min 0 W/m 6,4 km/h (2 Bft) 97,87 %
18.08.2019 02:46 18,6 C 15,6 C 15,6 C 93 % 1014,1 hPa 0,4 l/m 0 min 2 min 0 W/m 6,4 km/h (2 Bft) 97,87 %
18.08.2019 02:44 18,7 C 16,1 C 15,6 C 93 % 1014,1 hPa 0,4 l/m 0 min 2 min 0 W/m 9,7 km/h (2 Bft) 97,87 %
18.08.2019 02:42 18,8 C 16,1 C 16,1 C 93 % 1014,0 hPa 0,0 l/m 0 min 2 min 0 W/m 9,7 km/h (2 Bft) 97,87 %
18.08.2019 02:40 18,8 C 16,7 C 16,7 C 93 % 1014,0 hPa 0,0 l/m 0 min 2 min 0 W/m 3,2 km/h (1 Bft) 95,74 %
18.08.2019 02:38 18,8 C 16,7 C 16,7 C 93 % 1013,7 hPa 0,0 l/m 0 min 2 min 0 W/m 0,0 km/h (0 Bft) 97,83 %
18.08.2019 02:36 18,8 C 16,7 C 16,7 C 93 % 1013,6 hPa 0,0 l/m 0 min 2 min 0 W/m 3,2 km/h (1 Bft) 97,87 %
18.08.2019 02:34 18,9 C 16,7 C 16,7 C 93 % 1013,6 hPa 0,2 l/m 0 min 2 min 0 W/m 3,2 km/h (1 Bft) 97,87 %
18.08.2019 02:32 18,9 C 16,7 C 16,7 C 93 % 1013,8 hPa 0,0 l/m 0 min 2 min 0 W/m 3,2 km/h (1 Bft) 97,87 %
18.08.2019 02:30 18,9 C 16,7 C 16,7 C 93 % 1013,6 hPa 0,0 l/m 0 min 2 min 0 W/m 3,2 km/h (1 Bft) 97,87 %
18.08.2019 02:28 18,9 C 16,7 C 16,7 C 93 % 1013,6 hPa 0,0 l/m 0 min 2 min 0 W/m 3,2 km/h (1 Bft) 97,83 %
18.08.2019 02:26 18,9 C 16,7 C 16,7 C 93 % 1013,7 hPa 0,0 l/m 0 min 2 min 0 W/m 3,2 km/h (1 Bft) 97,87 %
18.08.2019 02:24 18,9 C 16,7 C 16,7 C 93 % 1013,8 hPa 0,0 l/m 0 min 2 min 0 W/m 3,2 km/h (1 Bft) 95,74 %
18.08.2019 02:22 18,9 C 16,7 C 16,7 C 93 % 1013,9 hPa 0,0 l/m 0 min 2 min 0 W/m 3,2 km/h (1 Bft) 93,62 %
18.08.2019 02:20 18,9 C 16,7 C 16,7 C 93 % 1013,8 hPa 0,0 l/m 0 min 2 min 0 W/m 3,2 km/h (1 Bft) 97,87 %
18.08.2019 02:18 18,9 C 17,2 C 16,7 C 93 % 1013,7 hPa 0,0 l/m 0 min 2 min 0 W/m 0,0 km/h (0 Bft) 100,00 %
18.08.2019 02:16 18,9 C 17,2 C 16,7 C 93 % 1013,7 hPa 0,0 l/m 0 min 2 min 0 W/m 0,0 km/h (0 Bft) 97,83 %
18.08.2019 02:14 18,9 C 17,2 C 16,7 C 93 % 1013,6 hPa 0,0 l/m 0 min 2 min 0 W/m 3,2 km/h (1 Bft) 100,00 %
18.08.2019 02:12 18,9 C 17,2 C 16,7 C 93 % 1013,6 hPa 0,0 l/m 0 min 2 min 0 W/m 3,2 km/h (1 Bft) 100,00 %
18.08.2019 02:10 18,9 C 17,2 C 16,7 C 93 % 1013,6 hPa 0,0 l/m 0 min 2 min 0 W/m 3,2 km/h (1 Bft) 97,87 %
18.08.2019 02:08 18,9 C 17,2 C 16,7 C 93 % 1013,6 hPa 0,0 l/m 0 min 2 min 0 W/m 3,2 km/h (1 Bft) 100,00 %
18.08.2019 02:06 18,9 C 17,2 C 16,7 C 93 % 1013,7 hPa 0,0 l/m 0 min 2 min 0 W/m 0,0 km/h (0 Bft) 100,00 %
18.08.2019 02:04 18,9 C 17,2 C 16,7 C 93 % 1013,6 hPa 0,0 l/m 0 min 2 min 0 W/m 3,2 km/h (1 Bft) 97,83 %
18.08.2019 02:02 18,9 C 17,2 C 16,7 C 93 % 1013,6 hPa 0,2 l/m 0 min 2 min 0 W/m 3,2 km/h (1 Bft) 100,00 %
18.08.2019 02:00 18,9 C 17,2 C 16,7 C 92 % 1013,6 hPa 0,0 l/m 0 min 2 min 0 W/m 3,2 km/h (1 Bft) 100,00 %
18.08.2019 01:58 19,0 C 17,2 C 16,7 C 92 % 1013,7 hPa 0,0 l/m 0 min 2 min 0 W/m 6,4 km/h (2 Bft) 100,00 %
18.08.2019 01:56 19,0 C 17,2 C 16,7 C 92 % 1013,7 hPa 0,0 l/m 0 min 2 min 0 W/m 6,4 km/h (2 Bft) 100,00 %
18.08.2019 01:54 19,0 C 17,2 C 16,7 C 92 % 1013,7 hPa 0,0 l/m 0 min 2 min 0 W/m 3,2 km/h (1 Bft) 100,00 %
18.08.2019 01:52 19,0 C 17,2 C 16,7 C 92 % 1013,6 hPa 0,0 l/m 0 min 2 min 0 W/m 3,2 km/h (1 Bft) 100,00 %
18.08.2019 01:50 19,0 C 17,2 C 16,7 C 92 % 1013,6 hPa 0,0 l/m 0 min 2 min 0 W/m 6,4 km/h (2 Bft) 100,00 %
18.08.2019 01:48 19,0 C 17,2 C 16,7 C 92 % 1013,6 hPa 0,0 l/m 0 min 2 min 0 W/m 6,4 km/h (2 Bft) 100,00 %
18.08.2019 01:46 19,0 C 17,2 C 16,7 C 92 % 1013,6 hPa 0,0 l/m 0 min 2 min 0 W/m 6,4 km/h (2 Bft) 100,00 %
18.08.2019 01:44 19,1 C 17,2 C 16,7 C 92 % 1013,6 hPa 0,0 l/m 0 min 2 min 0 W/m 9,7 km/h (2 Bft) 100,00 %
18.08.2019 01:42 19,1 C 17,2 C 16,7 C 92 % 1013,7 hPa 0,0 l/m 0 min 2 min 0 W/m 9,7 km/h (2 Bft) 100,00 %
18.08.2019 01:40 19,1 C 17,2 C 17,2 C 92 % 1013,6 hPa 0,0 l/m 0 min 2 min 0 W/m 9,7 km/h (2 Bft) 95,65 %
18.08.2019 01:38 19,1 C 17,8 C 17,2 C 92 % 1013,6 hPa 0,0 l/m 0 min 2 min 0 W/m 6,4 km/h (2 Bft) 95,74 %
18.08.2019 01:36 19,1 C 17,8 C 17,2 C 92 % 1013,7 hPa 0,0 l/m 0 min 0 min 0 W/m 6,4 km/h (2 Bft) 95,74 %
18.08.2019 01:34 19,1 C 17,8 C 17,2 C 92 % 1013,6 hPa 0,0 l/m 0 min 0 min 0 W/m 6,4 km/h (2 Bft) 95,74 %
18.08.2019 01:32 19,1 C 17,8 C 17,2 C 92 % 1013,7 hPa 0,0 l/m 0 min 0 min 0 W/m 6,4 km/h (2 Bft) 95,74 %
18.08.2019 01:30 19,1 C 17,2 C 17,2 C 91 % 1013,6 hPa 0,0 l/m 0 min 0 min 0 W/m 9,7 km/h (2 Bft) 95,65 %
18.08.2019 01:28 19,1 C 17,2 C 16,7 C 91 % 1013,6 hPa 0,0 l/m 0 min 0 min 0 W/m 3,2 km/h (1 Bft) 93,62 %
18.08.2019 01:26 19,2 C 17,2 C 16,7 C 91 % 1013,6 hPa 0,0 l/m 0 min 0 min 0 W/m 3,2 km/h (1 Bft) 93,62 %
18.08.2019 01:24 19,2 C 17,2 C 16,7 C 91 % 1013,6 hPa 0,0 l/m 0 min 0 min 0 W/m 6,4 km/h (2 Bft) 95,74 %
18.08.2019 01:22 19,2 C 17,2 C 16,7 C 91 % 1013,6 hPa 0,0 l/m 0 min 2 min 0 W/m 6,4 km/h (2 Bft) 95,74 %
18.08.2019 01:20 19,2 C 17,2 C 16,7 C 91 % 1013,7 hPa 0,0 l/m 0 min 0 min 0 W/m 6,4 km/h (2 Bft) 95,74 %
18.08.2019 01:18 19,2 C 17,2 C 16,7 C 91 % 1013,8 hPa 0,0 l/m 0 min 0 min 0 W/m 6,4 km/h (2 Bft) 95,65 %
18.08.2019 01:16 19,2 C 17,2 C 16,7 C 91 % 1013,6 hPa 0,0 l/m 0 min 0 min 0 W/m 6,4 km/h (2 Bft) 95,74 %
18.08.2019 01:14 19,2 C 17,2 C 16,7 C 91 % 1013,5 hPa 0,0 l/m 0 min 0 min 0 W/m 9,7 km/h (2 Bft) 95,74 %
18.08.2019 01:12 19,3 C 17,2 C 16,7 C 91 % 1013,5 hPa 0,0 l/m 0 min 0 min 0 W/m 6,4 km/h (2 Bft) 95,74 %
18.08.2019 01:10 19,3 C 17,2 C 16,7 C 91 % 1013,5 hPa 0,0 l/m 0 min 0 min 0 W/m 6,4 km/h (2 Bft) 95,74 %
18.08.2019 01:08 19,3 C 17,2 C 16,7 C 91 % 1013,6 hPa 0,0 l/m 0 min 0 min 0 W/m 6,4 km/h (2 Bft) 93,62 %
18.08.2019 01:06 19,3 C 17,2 C 16,7 C 91 % 1013,4 hPa 0,0 l/m 0 min 0 min 0 W/m 6,4 km/h (2 Bft) 93,48 %
18.08.2019 01:04 19,3 C 17,2 C 16,7 C 91 % 1013,5 hPa 0,0 l/m 0 min 2 min 0 W/m 9,7 km/h (2 Bft) 95,74 %
18.08.2019 01:02 19,4 C 17,2 C 16,7 C 91 % 1013,5 hPa 0,0 l/m 0 min 2 min 0 W/m 6,4 km/h (2 Bft) 93,62 %
18.08.2019 01:00 19,4 C 17,2 C 16,7 C 90 % 1013,5 hPa 0,0 l/m 0 min 2 min 0 W/m 9,7 km/h (2 Bft) 95,74 %
18.08.2019 00:58 19,4 C 17,2 C 16,7 C 90 % 1013,5 hPa 0,0 l/m 0 min 2 min 0 W/m 9,7 km/h (2 Bft) 93,62 %
18.08.2019 00:56 19,4 C 17,2 C 16,7 C 90 % 1013,4 hPa 0,0 l/m 0 min 2 min 0 W/m 9,7 km/h (2 Bft) 93,62 %
18.08.2019 00:54 19,4 C 17,2 C 16,7 C 90 % 1013,4 hPa 0,0 l/m 0 min 2 min 0 W/m 9,7 km/h (2 Bft) 95,65 %
18.08.2019 00:52 19,4 C 17,2 C 16,7 C 90 % 1013,4 hPa 0,0 l/m 0 min 2 min 0 W/m 6,4 km/h (2 Bft) 95,74 %
18.08.2019 00:50 19,4 C 17,2 C 16,7 C 90 % 1013,4 hPa 0,0 l/m 0 min 2 min 0 W/m 6,4 km/h (2 Bft) 95,74 %
18.08.2019 00:48 19,5 C 17,2 C 16,7 C 90 % 1013,5 hPa 0,0 l/m 0 min 2 min 0 W/m 9,7 km/h (2 Bft) 95,74 %
18.08.2019 00:46 19,5 C 17,2 C 16,7 C 90 % 1013,5 hPa 0,0 l/m 0 min 2 min 0 W/m 12,9 km/h (3 Bft) 97,87 %
18.08.2019 00:44 19,5 C 17,2 C 16,7 C 90 % 1013,4 hPa 0,0 l/m 0 min 2 min 0 W/m 6,4 km/h (2 Bft) 97,87 %
18.08.2019 00:42 19,5 C 17,2 C 17,2 C 90 % 1013,4 hPa 0,0 l/m 0 min 2 min 0 W/m 6,4 km/h (2 Bft) 93,48 %
18.08.2019 00:40 19,6 C 17,2 C 17,2 C 90 % 1013,5 hPa 0,0 l/m 0 min 2 min 0 W/m 6,4 km/h (2 Bft) 95,74 %
18.08.2019 00:38 19,6 C 17,2 C 17,2 C 90 % 1013,5 hPa 0,0 l/m 0 min 2 min 0 W/m 9,7 km/h (2 Bft) 95,74 %
18.08.2019 00:36 19,6 C 17,2 C 17,2 C 89 % 1013,4 hPa 0,0 l/m 0 min 2 min 0 W/m 6,4 km/h (2 Bft) 100,00 %
18.08.2019 00:34 19,6 C 17,8 C 17,2 C 89 % 1013,4 hPa 0,0 l/m 0 min 2 min 0 W/m 6,4 km/h (2 Bft) 100,00 %
18.08.2019 00:32 19,6 C 17,8 C 17,2 C 89 % 1013,4 hPa 0,0 l/m 0 min 2 min 0 W/m 9,7 km/h (2 Bft) 100,00 %
18.08.2019 00:30 19,6 C 17,8 C 17,2 C 89 % 1013,4 hPa 0,0 l/m 0 min 2 min 0 W/m 9,7 km/h (2 Bft) 95,65 %
18.08.2019 00:28 19,7 C 17,8 C 17,2 C 89 % 1013,4 hPa 0,0 l/m 0 min 0 min 0 W/m 9,7 km/h (2 Bft) 100,00 %
18.08.2019 00:26 19,7 C 17,8 C 17,2 C 89 % 1013,4 hPa 0,0 l/m 0 min 0 min 0 W/m 6,4 km/h (2 Bft) 100,00 %
18.08.2019 00:24 19,7 C 17,8 C 17,2 C 89 % 1013,4 hPa 0,0 l/m 0 min 0 min 0 W/m 9,7 km/h (2 Bft) 97,87 %
18.08.2019 00:22 19,7 C 17,8 C 17,2 C 89 % 1013,4 hPa 0,0 l/m 0 min 0 min 0 W/m 6,4 km/h (2 Bft) 97,87 %
18.08.2019 00:20 19,7 C 17,8 C 17,2 C 88 % 1013,3 hPa 0,0 l/m 0 min 2 min 0 W/m 16,1 km/h (3 Bft) 95,74 %
18.08.2019 00:18 19,8 C 17,8 C 17,2 C 88 % 1013,3 hPa 0,0 l/m 0 min 2 min 0 W/m 12,9 km/h (3 Bft) 97,83 %
18.08.2019 00:16 19,8 C 17,8 C 17,2 C 88 % 1013,3 hPa 0,0 l/m 0 min 2 min 0 W/m 9,7 km/h (2 Bft) 95,74 %
18.08.2019 00:14 19,8 C 17,8 C 17,2 C 88 % 1013,3 hPa 0,0 l/m 0 min 2 min 0 W/m 6,4 km/h (2 Bft) 97,87 %
18.08.2019 00:12 19,8 C 17,8 C 17,2 C 88 % 1013,3 hPa 0,0 l/m 0 min 2 min 0 W/m 12,9 km/h (3 Bft) 97,87 %
18.08.2019 00:10 19,8 C 17,8 C 17,2 C 88 % 1013,3 hPa 0,0 l/m 0 min 2 min 0 W/m 6,4 km/h (2 Bft) 95,74 %
18.08.2019 00:08 19,8 C 18,3 C 17,2 C 88 % 1013,3 hPa 0,0 l/m 0 min 4 min 0 W/m 9,7 km/h (2 Bft) 97,85 %
18.08.2019 00:04 19,8 C 18,3 C 17,8 C 88 % 1013,3 hPa 0,0 l/m 0 min 2 min 0 W/m 12,9 km/h (3 Bft) 97,87 %
18.08.2019 00:02 19,8 C 18,3 C 17,8 C 88 % 1013,3 hPa 0,0 l/m 0 min 0 min 0 W/m 12,9 km/h (3 Bft) 97,50 %
18.08.2019 00:00 19,9 C 18,3 C 17,8 C 88 % 1013,3 hPa 0,0 l/m 0 min 0 min 0 W/m 12,9 km/h (3 Bft) 97,87 %
17.08.2019 23:58 19,9 C 18,3 C 17,8 C 88 % 1013,3 hPa 0,0 l/m 0 min 2 min 0 W/m 16,1 km/h (3 Bft) 97,87 %
17.08.2019 23:56 19,9 C 18,3 C 17,8 C 88 % 1013,3 hPa 0,0 l/m 0 min 0 min 0 W/m 12,9 km/h (3 Bft) 97,83 %
17.08.2019 23:54 19,9 C 18,3 C 18,3 C 87 % 1013,3 hPa 0,0 l/m 0 min 2 min 0 W/m 12,9 km/h (3 Bft) 97,87 %
17.08.2019 23:52 19,9 C 18,9 C 18,3 C 87 % 1013,4 hPa 0,0 l/m 0 min 2 min 0 W/m 12,9 km/h (3 Bft) 97,87 %
17.08.2019 23:50 19,9 C 18,9 C 18,3 C 87 % 1013,3 hPa 0,0 l/m 0 min 0 min 0 W/m 12,9 km/h (3 Bft) 97,87 %
17.08.2019 23:48 19,9 C 18,9 C 18,3 C 87 % 1013,3 hPa 0,0 l/m 0 min 0 min 0 W/m 12,9 km/h (3 Bft) 97,87 %
17.08.2019 23:46 19,9 C 18,9 C 18,3 C 87 % 1013,4 hPa 0,0 l/m 0 min 0 min 0 W/m 16,1 km/h (3 Bft) 95,74 %
17.08.2019 23:44 19,9 C 18,9 C 18,3 C 87 % 1013,4 hPa 0,0 l/m 0 min 0 min 0 W/m 16,1 km/h (3 Bft) 97,83 %
17.08.2019 23:42 19,9 C 18,9 C 18,3 C 87 % 1013,3 hPa 0,0 l/m 0 min 0 min 0 W/m 12,9 km/h (3 Bft) 97,87 %
17.08.2019 23:40 19,9 C 18,9 C 18,3 C 87 % 1013,2 hPa 0,0 l/m 0 min 0 min 0 W/m 12,9 km/h (3 Bft) 97,87 %
17.08.2019 23:38 20,0 C 18,9 C 18,3 C 87 % 1013,2 hPa 0,0 l/m 0 min 0 min 0 W/m 16,1 km/h (3 Bft) 95,74 %
17.08.2019 23:36 20,0 C 18,9 C 18,3 C 87 % 1013,3 hPa 0,0 l/m 0 min 0 min 0 W/m 12,9 km/h (3 Bft) 100,00 %
17.08.2019 23:34 20,0 C 18,9 C 18,3 C 87 % 1013,3 hPa 0,0 l/m 0 min 0 min 0 W/m 12,9 km/h (3 Bft) 100,00 %
17.08.2019 23:32 20,0 C 18,9 C 18,3 C 87 % 1013,3 hPa 0,0 l/m 0 min 0 min 0 W/m 16,1 km/h (3 Bft) 100,00 %
17.08.2019 23:30 20,1 C 18,9 C 18,9 C 87 % 1013,2 hPa 0,0 l/m 0 min 0 min 0 W/m 12,9 km/h (3 Bft) 100,00 %
17.08.2019 23:28 20,1 C 18,9 C 18,9 C 87 % 1013,3 hPa 0,0 l/m 0 min 0 min 0 W/m 9,7 km/h (2 Bft) 97,87 %
17.08.2019 23:26 20,1 C 18,9 C 18,9 C 87 % 1013,2 hPa 0,0 l/m 0 min 0 min 0 W/m 12,9 km/h (3 Bft) 97,87 %
17.08.2019 23:24 20,1 C 18,9 C 18,9 C 87 % 1013,2 hPa 0,0 l/m 0 min 0 min 0 W/m 22,5 km/h (4 Bft) 100,00 %
17.08.2019 23:22 20,1 C 18,9 C 18,9 C 86 % 1013,2 hPa 0,0 l/m 0 min 0 min 0 W/m 19,3 km/h (3 Bft) 100,00 %
17.08.2019 23:20 20,1 C 18,9 C 18,9 C 86 % 1013,2 hPa 0,0 l/m 0 min 0 min 0 W/m 16,1 km/h (3 Bft) 100,00 %
17.08.2019 23:18 20,1 C 18,9 C 18,9 C 86 % 1013,2 hPa 0,0 l/m 0 min 0 min 0 W/m 22,5 km/h (4 Bft) 100,00 %
17.08.2019 23:16 20,1 C 18,9 C 18,9 C 86 % 1013,2 hPa 0,0 l/m 0 min 0 min 0 W/m 16,1 km/h (3 Bft) 100,00 %
17.08.2019 23:14 20,1 C 18,9 C 18,9 C 86 % 1013,2 hPa 0,0 l/m 0 min 0 min 0 W/m 16,1 km/h (3 Bft) 97,87 %
17.08.2019 23:12 20,1 C 18,9 C 18,9 C 86 % 1013,2 hPa 0,0 l/m 0 min 0 min 0 W/m 16,1 km/h (3 Bft) 100,00 %
17.08.2019 23:10 20,2 C 18,9 C 18,9 C 86 % 1013,1 hPa 0,0 l/m 0 min 0 min 0 W/m 9,7 km/h (2 Bft) 100,00 %
17.08.2019 23:08 20,2 C 19,4 C 18,9 C 86 % 1013,2 hPa 0,0 l/m 0 min 0 min 0 W/m 19,3 km/h (3 Bft) 100,00 %
17.08.2019 23:06 20,2 C 19,4 C 18,9 C 86 % 1013,4 hPa 0,0 l/m 0 min 0 min 0 W/m 12,9 km/h (3 Bft) 97,87 %
17.08.2019 23:04 20,2 C 19,4 C 18,9 C 86 % 1013,4 hPa 0,0 l/m 0 min 0 min 0 W/m 9,7 km/h (2 Bft) 100,00 %
17.08.2019 23:02 20,2 C 19,4 C 18,9 C 86 % 1013,4 hPa 0,0 l/m 0 min 0 min 0 W/m 12,9 km/h (3 Bft) 100,00 %
17.08.2019 23:00 20,2 C 19,4 C 18,9 C 86 % 1013,4 hPa 0,0 l/m 0 min 0 min 0 W/m 16,1 km/h (3 Bft) 97,87 %
17.08.2019 22:58 20,2 C 19,4 C 18,9 C 86 % 1013,3 hPa 0,0 l/m 0 min 0 min 0 W/m 16,1 km/h (3 Bft) 100,00 %
17.08.2019 22:56 20,2 C 19,4 C 18,9 C 86 % 1013,2 hPa 0,0 l/m 0 min 0 min 0 W/m 12,9 km/h (3 Bft) 100,00 %
17.08.2019 22:54 20,2 C 19,4 C 18,9 C 86 % 1013,3 hPa 0,0 l/m 0 min 0 min 0 W/m 12,9 km/h (3 Bft) 97,87 %
17.08.2019 22:52 20,2 C 19,4 C 18,9 C 86 % 1013,4 hPa 0,0 l/m 0 min 0 min 0 W/m 16,1 km/h (3 Bft) 100,00 %
17.08.2019 22:50 20,2 C 19,4 C 18,9 C 86 % 1013,3 hPa 0,0 l/m 0 min 0 min 0 W/m 22,5 km/h (4 Bft) 100,00 %
17.08.2019 22:48 20,2 C 19,4 C 18,9 C 86 % 1013,1 hPa 0,0 l/m 0 min 0 min 0 W/m 22,5 km/h (4 Bft) 100,00 %
17.08.2019 22:46 20,2 C 19,4 C 18,9 C 86 % 1013,2 hPa 0,0 l/m 0 min 0 min 0 W/m 12,9 km/h (3 Bft) 100,00 %
17.08.2019 22:44 20,2 C 19,4 C 18,9 C 86 % 1013,1 hPa 0,0 l/m 0 min 0 min 0 W/m 22,5 km/h (4 Bft) 100,00 %
17.08.2019 22:42 20,2 C 19,4 C 18,9 C 86 % 1013,1 hPa 0,0 l/m 0 min 0 min 0 W/m 19,3 km/h (3 Bft) 100,00 %
17.08.2019 22:40 20,2 C 19,4 C 18,9 C 86 % 1013,1 hPa 0,0 l/m 0 min 0 min 0 W/m 19,3 km/h (3 Bft) 100,00 %
17.08.2019 22:38 20,2 C 19,4 C 18,9 C 86 % 1013,1 hPa 0,0 l/m 0 min 0 min 0 W/m 22,5 km/h (4 Bft) 100,00 %
17.08.2019 22:36 20,2 C 19,4 C 18,9 C 86 % 1013,1 hPa 0,0 l/m 0 min 0 min 0 W/m 22,5 km/h (4 Bft) 100,00 %
17.08.2019 22:34 20,2 C 19,4 C 18,9 C 86 % 1013,1 hPa 0,0 l/m 0 min 0 min 0 W/m 19,3 km/h (3 Bft) 97,83 %
17.08.2019 22:32 20,2 C 19,4 C 18,9 C 86 % 1013,0 hPa 0,0 l/m 0 min 0 min 0 W/m 22,5 km/h (4 Bft) 97,87 %
17.08.2019 22:30 20,2 C 19,4 C 18,9 C 86 % 1012,9 hPa 0,0 l/m 0 min 0 min 0 W/m 19,3 km/h (3 Bft) 95,74 %
17.08.2019 22:28 20,3 C 19,4 C 18,9 C 86 % 1012,9 hPa 0,0 l/m 0 min 0 min 0 W/m 12,9 km/h (3 Bft) 97,87 %
17.08.2019 22:26 20,2 C 19,4 C 18,9 C 86 % 1012,8 hPa 0,0 l/m 0 min 0 min 0 W/m 22,5 km/h (4 Bft) 97,87 %
17.08.2019 22:24 20,3 C 19,4 C 18,9 C 86 % 1012,8 hPa 0,0 l/m 0 min 0 min 0 W/m 16,1 km/h (3 Bft) 97,87 %
17.08.2019 22:22 20,3 C 19,4 C 18,9 C 86 % 1012,7 hPa 0,0 l/m 0 min 0 min 0 W/m 16,1 km/h (3 Bft) 97,83 %
17.08.2019 22:20 20,3 C 19,4 C 18,9 C 86 % 1012,7 hPa 0,0 l/m 0 min 0 min 0 W/m 12,9 km/h (3 Bft) 97,87 %
17.08.2019 22:18 20,3 C 19,4 C 18,9 C 86 % 1012,7 hPa 0,0 l/m 0 min 0 min 0 W/m 19,3 km/h (3 Bft) 97,87 %
17.08.2019 22:16 20,3 C 19,4 C 18,9 C 86 % 1012,7 hPa 0,0 l/m 0 min 0 min 0 W/m 19,3 km/h (3 Bft) 97,87 %
17.08.2019 22:14 20,3 C 19,4 C 18,9 C 86 % 1012,7 hPa 0,0 l/m 0 min 0 min 0 W/m 19,3 km/h (3 Bft) 95,74 %
17.08.2019 22:12 20,3 C 19,4 C 18,9 C 86 % 1012,7 hPa 0,0 l/m 0 min 0 min 0 W/m 9,7 km/h (2 Bft) 91,49 %
17.08.2019 22:10 20,3 C 19,4 C 18,9 C 86 % 1012,7 hPa 0,0 l/m 0 min 0 min 0 W/m 16,1 km/h (3 Bft) 93,48 %
17.08.2019 22:08 20,3 C 19,4 C 18,9 C 86 % 1012,9 hPa 0,0 l/m 0 min 0 min 0 W/m 22,5 km/h (4 Bft) 95,74 %
17.08.2019 22:06 20,3 C 19,4 C 18,9 C 86 % 1012,8 hPa 0,0 l/m 0 min 0 min 0 W/m 16,1 km/h (3 Bft) 93,62 %
17.08.2019 22:04 20,3 C 19,4 C 18,9 C 86 % 1012,8 hPa 0,0 l/m 0 min 0 min 0 W/m 16,1 km/h (3 Bft) 95,74 %
17.08.2019 22:02 20,3 C 19,4 C 18,9 C 86 % 1012,7 hPa 0,0 l/m 0 min 0 min 0 W/m 6,4 km/h (2 Bft) 95,74 %
17.08.2019 22:00 20,3 C 19,4 C 18,9 C 86 % 1012,8 hPa 0,0 l/m 0 min 0 min 0 W/m 19,3 km/h (3 Bft) 95,65 %
17.08.2019 21:58 20,3 C 19,4 C 18,9 C 86 % 1012,8 hPa 0,0 l/m 0 min 0 min 0 W/m 9,7 km/h (2 Bft) 93,62 %
17.08.2019 21:56 20,3 C 19,4 C 18,9 C 86 % 1012,8 hPa 0,0 l/m 0 min 0 min 0 W/m 16,1 km/h (3 Bft) 95,74 %
17.08.2019 21:54 20,3 C 19,4 C 18,9 C 86 % 1012,8 hPa 0,0 l/m 0 min 0 min 0 W/m 19,3 km/h (3 Bft) 95,74 %
17.08.2019 21:52 20,2 C 19,4 C 19,4 C 86 % 1012,8 hPa 0,0 l/m 0 min 0 min 0 W/m 16,1 km/h (3 Bft) 95,74 %
17.08.2019 21:50 20,2 C 19,4 C 19,4 C 86 % 1012,7 hPa 0,0 l/m 0 min 0 min 0 W/m 25,7 km/h (4 Bft) 97,87 %
17.08.2019 21:48 20,2 C 19,4 C 18,9 C 86 % 1012,6 hPa 0,0 l/m 0 min 0 min 0 W/m 22,5 km/h (4 Bft) 93,62 %
17.08.2019 21:46 20,2 C 19,4 C 18,9 C 86 % 1012,5 hPa 0,0 l/m 0 min 0 min 0 W/m 12,9 km/h (3 Bft) 95,65 %
17.08.2019 21:44 20,2 C 19,4 C 18,9 C 86 % 1012,5 hPa 0,0 l/m 0 min 0 min 0 W/m 12,9 km/h (3 Bft) 91,49 %
17.08.2019 21:42 20,2 C 19,4 C 19,4 C 87 % 1012,5 hPa 0,0 l/m 0 min 0 min 0 W/m 22,5 km/h (4 Bft) 93,62 %
17.08.2019 21:40 20,2 C 19,4 C 18,9 C 87 % 1012,5 hPa 0,0 l/m 0 min 0 min 0 W/m 25,7 km/h (4 Bft) 89,36 %
17.08.2019 21:38 20,2 C 19,4 C 18,9 C 87 % 1012,5 hPa 0,0 l/m 0 min 0 min 0 W/m 16,1 km/h (3 Bft) 93,62 %
17.08.2019 21:36 20,2 C 19,4 C 18,9 C 87 % 1012,5 hPa 0,0 l/m 0 min 0 min 0 W/m 19,3 km/h (3 Bft) 93,48 %
17.08.2019 21:34 20,2 C 19,4 C 18,9 C 87 % 1012,5 hPa 0,0 l/m 0 min 0 min 0 W/m 12,9 km/h (3 Bft) 91,49 %
17.08.2019 21:32 20,2 C 19,4 C 18,9 C 87 % 1012,5 hPa 0,0 l/m 0 min 0 min 0 W/m 16,1 km/h (3 Bft) 95,74 %
17.08.2019 21:30 20,2 C 19,4 C 18,9 C 87 % 1012,5 hPa 0,0 l/m 0 min 0 min 0 W/m 16,1 km/h (3 Bft) 95,74 %
17.08.2019 21:28 20,2 C 19,4 C 18,9 C 87 % 1012,5 hPa 0,0 l/m 0 min 0 min 0 W/m 12,9 km/h (3 Bft) 93,62 %
17.08.2019 21:26 20,2 C 19,4 C 18,9 C 87 % 1012,4 hPa 0,0 l/m 0 min 0 min 0 W/m 12,9 km/h (3 Bft) 91,49 %
17.08.2019 21:24 20,2 C 19,4 C 18,9 C 87 % 1012,3 hPa 0,0 l/m 0 min 0 min 0 W/m 16,1 km/h (3 Bft) 95,65 %
17.08.2019 21:22 20,2 C 19,4 C 18,9 C 87 % 1012,3 hPa 0,0 l/m 0 min 0 min 0 W/m 6,4 km/h (2 Bft) 95,74 %
17.08.2019 21:20 20,2 C 19,4 C 18,9 C 87 % 1012,2 hPa 0,0 l/m 0 min 0 min 0 W/m 9,7 km/h (2 Bft) 95,74 %
17.08.2019 21:18 20,2 C 19,4 C 18,9 C 87 % 1012,3 hPa 0,0 l/m 0 min 0 min 0 W/m 9,7 km/h (2 Bft) 95,74 %
17.08.2019 21:16 20,2 C 19,4 C 18,9 C 87 % 1012,3 hPa 0,0 l/m 0 min 0 min 0 W/m 9,7 km/h (2 Bft) 97,87 %
17.08.2019 21:14 20,2 C 19,4 C 18,9 C 87 % 1012,3 hPa 0,0 l/m 0 min 0 min 0 W/m 12,9 km/h (3 Bft) 97,87 %
17.08.2019 21:12 20,2 C 19,4 C 18,9 C 87 % 1012,2 hPa 0,0 l/m 0 min 0 min 0 W/m 12,9 km/h (3 Bft) 97,83 %
17.08.2019 21:10 20,2 C 19,4 C 18,9 C 87 % 1012,2 hPa 0,0 l/m 0 min 0 min 0 W/m 9,7 km/h (2 Bft) 95,74 %
17.08.2019 21:08 20,2 C 19,4 C 18,9 C 87 % 1012,1 hPa 0,0 l/m 0 min 0 min 0 W/m 6,4 km/h (2 Bft) 98,18 %
17.08.2019 21:06 20,2 C 19,4 C 18,9 C 87 % 1012,1 hPa 0,0 l/m 0 min 0 min 0 W/m 6,4 km/h (2 Bft) 97,83 %
17.08.2019 21:04 20,2 C 19,4 C 18,9 C 87 % 1012,1 hPa 0,0 l/m 0 min 0 min 0 W/m 9,7 km/h (2 Bft) 97,87 %
17.08.2019 21:02 20,2 C 19,4 C 18,9 C 87 % 1012,2 hPa 0,0 l/m 0 min 0 min 0 W/m 9,7 km/h (2 Bft) 97,87 %
17.08.2019 21:00 20,2 C 19,4 C 18,9 C 87 % 1012,0 hPa 0,0 l/m 0 min 0 min 0 W/m 12,9 km/h (3 Bft) 97,87 %
17.08.2019 20:58 20,2 C 19,4 C 18,9 C 87 % 1012,0 hPa 0,0 l/m 0 min 0 min 0 W/m 9,7 km/h (2 Bft) 100,00 %
17.08.2019 20:56 20,2 C 19,4 C 18,9 C 87 % 1011,8 hPa 0,0 l/m 0 min 0 min 0 W/m 12,9 km/h (3 Bft) 100,00 %
17.08.2019 20:54 20,2 C 19,4 C 18,9 C 87 % 1011,8 hPa 0,0 l/m 0 min 0 min 0 W/m 9,7 km/h (2 Bft) 100,00 %
17.08.2019 20:52 20,2 C 19,4 C 18,9 C 87 % 1011,9 hPa 0,0 l/m 0 min 0 min 0 W/m 6,4 km/h (2 Bft) 100,00 %
17.08.2019 20:50 20,2 C 19,4 C 18,9 C 87 % 1011,8 hPa 0,0 l/m 0 min 0 min 0 W/m 9,7 km/h (2 Bft) 100,00 %
17.08.2019 20:48 20,2 C 19,4 C 18,9 C 87 % 1011,8 hPa 0,0 l/m 0 min 0 min 0 W/m 16,1 km/h (3 Bft) 97,87 %
17.08.2019 20:46 20,2 C 19,4 C 18,9 C 87 % 1011,8 hPa 0,0 l/m 0 min 0 min 0 W/m 9,7 km/h (2 Bft) 95,74 %
17.08.2019 20:44 20,2 C 19,4 C 18,9 C 87 % 1011,8 hPa 0,0 l/m 0 min 0 min 0 W/m 9,7 km/h (2 Bft) 100,00 %
17.08.2019 20:42 20,2 C 19,4 C 18,9 C 87 % 1011,9 hPa 0,0 l/m 0 min 0 min 0 W/m 12,9 km/h (3 Bft) 100,00 %
17.08.2019 20:40 20,2 C 19,4 C 18,9 C 87 % 1011,9 hPa 0,0 l/m 0 min 0 min 0 W/m 6,4 km/h (2 Bft) 97,87 %
17.08.2019 20:38 20,2 C 19,4 C 18,9 C 87 % 1012,0 hPa 0,0 l/m 0 min 0 min 0 W/m 12,9 km/h (3 Bft) 97,87 %
17.08.2019 20:36 20,2 C 19,4 C 18,9 C 87 % 1012,0 hPa 0,0 l/m 0 min 0 min 0 W/m 12,9 km/h (3 Bft) 100,00 %
17.08.2019 20:34 20,2 C 19,4 C 18,9 C 87 % 1011,9 hPa 0,0 l/m 0 min 0 min 0 W/m 12,9 km/h (3 Bft) 100,00 %
17.08.2019 20:32 20,2 C 19,4 C 18,9 C 87 % 1011,8 hPa 0,0 l/m 0 min 0 min 0 W/m 9,7 km/h (2 Bft) 100,00 %
17.08.2019 20:30 20,2 C 19,4 C 18,9 C 87 % 1011,7 hPa 0,0 l/m 0 min 0 min 0 W/m 12,9 km/h (3 Bft) 100,00 %
17.08.2019 20:28 20,2 C 19,4 C 18,9 C 87 % 1011,6 hPa 0,0 l/m 0 min 0 min 0 W/m 9,7 km/h (2 Bft) 100,00 %
17.08.2019 20:26 20,2 C 19,4 C 18,9 C 87 % 1011,5 hPa 0,0 l/m 0 min 0 min 2 W/m 9,7 km/h (2 Bft) 100,00 %
17.08.2019 20:24 20,2 C 19,4 C 18,9 C 87 % 1011,4 hPa 0,0 l/m 0 min 0 min 5 W/m 9,7 km/h (2 Bft) 100,00 %
17.08.2019 20:22 20,2 C 19,4 C 18,9 C 87 % 1011,4 hPa 0,0 l/m 0 min 0 min 5 W/m 6,4 km/h (2 Bft) 100,00 %
17.08.2019 20:20 20,2 C 19,4 C 18,9 C 87 % 1011,4 hPa 0,0 l/m 0 min 0 min 5 W/m 12,9 km/h (3 Bft) 97,87 %
17.08.2019 20:18 20,2 C 19,4 C 18,9 C 87 % 1011,4 hPa 0,0 l/m 0 min 0 min 5 W/m 16,1 km/h (3 Bft) 100,00 %
17.08.2019 20:16 20,2 C 19,4 C 18,9 C 87 % 1011,4 hPa 0,0 l/m 0 min 0 min 5 W/m 19,3 km/h (3 Bft) 100,00 %
17.08.2019 20:14 20,2 C 19,4 C 18,9 C 87 % 1011,4 hPa 0,0 l/m 0 min 0 min 3 W/m 16,1 km/h (3 Bft) 97,87 %
17.08.2019 20:12 20,2 C 19,4 C 18,9 C 87 % 1011,5 hPa 0,0 l/m 0 min 0 min 3 W/m 16,1 km/h (3 Bft) 100,00 %
17.08.2019 20:10 20,2 C 19,4 C 18,9 C 87 % 1011,4 hPa 0,0 l/m 0 min 0 min 5 W/m 22,5 km/h (4 Bft) 100,00 %
17.08.2019 20:08 20,2 C 19,4 C 18,9 C 87 % 1011,4 hPa 0,0 l/m 0 min 0 min 9 W/m 16,1 km/h (3 Bft) 100,00 %
17.08.2019 20:06 20,2 C 19,4 C 18,9 C 87 % 1011,3 hPa 0,0 l/m 0 min 0 min 11 W/m 16,1 km/h (3 Bft) 97,83 %
17.08.2019 20:04 20,2 C 19,4 C 18,9 C 87 % 1011,2 hPa 0,0 l/m 0 min 0 min 11 W/m 9,7 km/h (2 Bft) 100,00 %
17.08.2019 20:02 20,2 C 19,4 C 18,9 C 87 % 1011,3 hPa 0,0 l/m 0 min 0 min 11 W/m 12,9 km/h (3 Bft) 100,00 %
17.08.2019 20:00 20,2 C 19,4 C 18,9 C 87 % 1011,1 hPa 0,0 l/m 0 min 0 min 11 W/m 12,9 km/h (3 Bft) 100,00 %
17.08.2019 19:58 20,2 C 19,4 C 18,9 C 87 % 1011,2 hPa 0,0 l/m 0 min 0 min 12 W/m 12,9 km/h (3 Bft) 100,00 %
17.08.2019 19:56 20,2 C 19,4 C 18,9 C 87 % 1011,1 hPa 0,0 l/m 0 min 0 min 15 W/m 12,9 km/h (3 Bft) 97,83 %
17.08.2019 19:54 20,2 C 19,4 C 18,9 C 87 % 1011,2 hPa 0,0 l/m 0 min 0 min 18 W/m 19,3 km/h (3 Bft) 100,00 %
17.08.2019 19:52 20,2 C 19,4 C 18,9 C 87 % 1011,1 hPa 0,0 l/m 0 min 0 min 18 W/m 12,9 km/h (3 Bft) 100,00 %
17.08.2019 19:50 20,2 C 19,4 C 18,9 C 87 % 1011,1 hPa 0,0 l/m 0 min 0 min 18 W/m 25,7 km/h (4 Bft) 100,00 %
17.08.2019 19:48 20,2 C 19,4 C 18,9 C 87 % 1011,1 hPa 0,0 l/m 0 min 0 min 17 W/m 19,3 km/h (3 Bft) 100,00 %
17.08.2019 19:46 20,2 C 19,4 C 18,9 C 87 % 1011,1 hPa 0,0 l/m 0 min 0 min 18 W/m 19,3 km/h (3 Bft) 100,00 %
17.08.2019 19:44 20,2 C 19,4 C 18,9 C 87 % 1011,0 hPa 0,0 l/m 0 min 0 min 18 W/m 16,1 km/h (3 Bft) 100,00 %
17.08.2019 19:42 20,2 C 19,4 C 18,9 C 87 % 1011,0 hPa 0,0 l/m 0 min 0 min 17 W/m 12,9 km/h (3 Bft) 100,00 %
17.08.2019 19:40 20,2 C 19,4 C 18,9 C 87 % 1011,0 hPa 0,0 l/m 0 min 0 min 16 W/m 12,9 km/h (3 Bft) 97,87 %
17.08.2019 19:38 20,2 C 19,4 C 18,9 C 87 % 1011,0 hPa 0,0 l/m 0 min 0 min 16 W/m 19,3 km/h (3 Bft) 100,00 %
17.08.2019 19:36 20,2 C 19,4 C 18,9 C 87 % 1011,0 hPa 0,0 l/m 0 min 0 min 17 W/m 19,3 km/h (3 Bft) 97,87 %
17.08.2019 19:34 20,2 C 19,4 C 18,9 C 87 % 1011,0 hPa 0,0 l/m 0 min 0 min 18 W/m 22,5 km/h (4 Bft) 100,00 %
17.08.2019 19:32 20,2 C 19,4 C 18,9 C 87 % 1011,0 hPa 0,0 l/m 0 min 0 min 22 W/m 16,1 km/h (3 Bft) 100,00 %
17.08.2019 19:30 20,2 C 19,4 C 18,9 C 87 % 1010,9 hPa 0,0 l/m 0 min 0 min 26 W/m 25,7 km/h (4 Bft) 97,87 %
17.08.2019 19:28 20,2 C 19,4 C 18,9 C 87 % 1010,9 hPa 0,0 l/m 0 min 0 min 26 W/m 16,1 km/h (3 Bft) 95,74 %
17.08.2019 19:26 20,2 C 19,4 C 18,9 C 87 % 1010,8 hPa 0,0 l/m 0 min 0 min 27 W/m 22,5 km/h (4 Bft) 97,87 %
17.08.2019 19:24 20,2 C 19,4 C 18,9 C 87 % 1010,6 hPa 0,0 l/m 0 min 0 min 25 W/m 19,3 km/h (3 Bft) 97,87 %
17.08.2019 19:22 20,2 C 19,4 C 18,9 C 87 % 1010,6 hPa 0,0 l/m 0 min 0 min 24 W/m 25,7 km/h (4 Bft) 97,83 %
17.08.2019 19:20 20,2 C 19,4 C 18,9 C 87 % 1010,6 hPa 0,0 l/m 0 min 0 min 25 W/m 12,9 km/h (3 Bft) 97,87 %
17.08.2019 19:18 20,2 C 19,4 C 18,9 C 87 % 1010,6 hPa 0,0 l/m 0 min 0 min 31 W/m 12,9 km/h (3 Bft) 97,87 %
17.08.2019 19:16 20,2 C 19,4 C 18,9 C 87 % 1010,5 hPa 0,0 l/m 0 min 0 min 36 W/m 22,5 km/h (4 Bft) 93,62 %
17.08.2019 19:14 20,2 C 19,4 C 18,3 C 87 % 1010,4 hPa 0,0 l/m 0 min 0 min 36 W/m 22,5 km/h (4 Bft) 97,87 %
17.08.2019 19:12 20,2 C 19,4 C 18,3 C 87 % 1010,3 hPa 0,0 l/m 0 min 0 min 35 W/m 16,1 km/h (3 Bft) 97,87 %
17.08.2019 19:10 20,2 C 19,4 C 17,8 C 87 % 1010,2 hPa 0,0 l/m 0 min 0 min 34 W/m 25,7 km/h (4 Bft) 97,83 %
17.08.2019 19:08 20,2 C 19,4 C 17,8 C 87 % 1010,2 hPa 0,0 l/m 0 min 0 min 32 W/m 16,1 km/h (3 Bft) 93,62 %
17.08.2019 19:06 20,2 C 19,4 C 17,8 C 87 % 1010,2 hPa 0,0 l/m 0 min 0 min 26 W/m 12,9 km/h (3 Bft) 93,62 %
17.08.2019 19:04 20,2 C 19,4 C 17,8 C 87 % 1010,2 hPa 0,0 l/m 0 min 0 min 24 W/m 29,0 km/h (5 Bft) 95,74 %
17.08.2019 19:02 20,2 C 19,4 C 17,8 C 87 % 1010,3 hPa 0,0 l/m 0 min 0 min 20 W/m 16,1 km/h (3 Bft) 93,62 %
17.08.2019 19:00 20,2 C 19,4 C 17,8 C 87 % 1010,3 hPa 0,0 l/m 0 min 0 min 19 W/m 16,1 km/h (3 Bft) 93,62 %
17.08.2019 18:58 20,2 C 19,4 C 17,8 C 87 % 1010,3 hPa 0,0 l/m 0 min 0 min 18 W/m 22,5 km/h (4 Bft) 93,48 %
17.08.2019 18:56 20,2 C 19,4 C 17,8 C 87 % 1010,3 hPa 0,0 l/m 0 min 0 min 19 W/m 22,5 km/h (4 Bft) 95,74 %
17.08.2019 18:54 20,2 C 19,4 C 17,8 C 87 % 1010,3 hPa 0,0 l/m 0 min 0 min 25 W/m 22,5 km/h (4 Bft) 93,62 %
17.08.2019 18:52 20,2 C 19,4 C 17,8 C 87 % 1010,3 hPa 0,0 l/m 0 min 0 min 30 W/m 25,7 km/h (4 Bft) 93,62 %
17.08.2019 18:50 20,2 C 19,4 C 17,8 C 87 % 1010,3 hPa 0,0 l/m 0 min 0 min 38 W/m 29,0 km/h (5 Bft) 93,62 %
17.08.2019 18:48 20,2 C 19,4 C 17,8 C 87 % 1010,1 hPa 0,0 l/m 0 min 0 min 46 W/m 25,7 km/h (4 Bft) 91,30 %
17.08.2019 18:46 20,2 C 19,4 C 17,8 C 86 % 1010,1 hPa 0,0 l/m 0 min 0 min 51 W/m 16,1 km/h (3 Bft) 91,49 %
17.08.2019 18:44 20,2 C 19,4 C 17,8 C 87 % 1009,8 hPa 0,0 l/m 0 min 0 min 62 W/m 25,7 km/h (4 Bft) 93,62 %
17.08.2019 18:42 20,1 C 20,0 C 17,8 C 87 % 1009,7 hPa 0,0 l/m 0 min 0 min 68 W/m 29,0 km/h (5 Bft) 93,62 %
17.08.2019 18:40 20,1 C 20,0 C 17,8 C 87 % 1009,5 hPa 0,0 l/m 0 min 0 min 69 W/m 22,5 km/h (4 Bft) 93,62 %
17.08.2019 18:38 20,1 C 20,0 C 17,8 C 87 % 1009,4 hPa 0,0 l/m 0 min 0 min 67 W/m 22,5 km/h (4 Bft) 91,49 %
17.08.2019 18:36 20,1 C 19,4 C 17,8 C 87 % 1009,4 hPa 0,0 l/m 0 min 0 min 54 W/m 16,1 km/h (3 Bft) 89,36 %
17.08.2019 18:34 20,1 C 19,4 C 17,8 C 87 % 1009,6 hPa 0,0 l/m 0 min 0 min 51 W/m 19,3 km/h (3 Bft) 95,65 %
17.08.2019 18:32 20,1 C 19,4 C 17,8 C 87 % 1009,6 hPa 0,0 l/m 0 min 0 min 40 W/m 22,5 km/h (4 Bft) 95,74 %
17.08.2019 18:30 20,1 C 19,4 C 17,8 C 87 % 1009,7 hPa 0,0 l/m 0 min 0 min 28 W/m 32,2 km/h (5 Bft) 93,62 %
17.08.2019 18:28 20,0 C 19,4 C 17,8 C 87 % 1009,4 hPa 0,0 l/m 0 min 0 min 30 W/m 19,3 km/h (3 Bft) 95,74 %
17.08.2019 18:26 20,0 C 19,4 C 17,8 C 87 % 1009,4 hPa 0,0 l/m 0 min 0 min 34 W/m 19,3 km/h (3 Bft) 93,62 %
17.08.2019 18:24 20,0 C 19,4 C 17,8 C 88 % 1009,3 hPa 0,0 l/m 0 min 0 min 40 W/m 16,1 km/h (3 Bft) 95,74 %
17.08.2019 18:22 19,9 C 19,4 C 17,8 C 88 % 1009,0 hPa 0,0 l/m 0 min 0 min 45 W/m 25,7 km/h (4 Bft) 93,48 %
17.08.2019 18:20 19,9 C 19,4 C 17,8 C 88 % 1008,9 hPa 0,0 l/m 0 min 0 min 49 W/m 16,1 km/h (3 Bft) 97,87 %
17.08.2019 18:18 19,9 C 18,9 C 17,8 C 88 % 1008,8 hPa 0,0 l/m 0 min 0 min 50 W/m 22,5 km/h (4 Bft) 97,87 %
17.08.2019 18:16 19,9 C 18,9 C 17,8 C 88 % 1008,7 hPa 0,0 l/m 0 min 0 min 46 W/m 16,1 km/h (3 Bft) 95,74 %
17.08.2019 18:14 19,9 C 18,9 C 17,8 C 89 % 1008,5 hPa 0,0 l/m 0 min 0 min 48 W/m 16,1 km/h (3 Bft) 95,74 %
17.08.2019 18:12 19,9 C 18,9 C 17,8 C 89 % 1008,6 hPa 0,0 l/m 0 min 0 min 48 W/m 16,1 km/h (3 Bft) 95,65 %
17.08.2019 18:10 19,9 C 18,9 C 17,8 C 89 % 1008,6 hPa 0,0 l/m 0 min 0 min 38 W/m 9,7 km/h (2 Bft) 97,87 %
17.08.2019 18:08 19,9 C 18,9 C 17,8 C 89 % 1008,6 hPa 0,0 l/m 0 min 0 min 32 W/m 19,3 km/h (3 Bft) 96,81 %
17.08.2019 18:04 19,8 C 18,3 C 17,8 C 89 % 1008,6 hPa 0,0 l/m 0 min 0 min 30 W/m 16,1 km/h (3 Bft) 97,87 %
17.08.2019 18:02 19,8 C 18,3 C 17,8 C 89 % 1008,5 hPa 0,0 l/m 0 min 0 min 32 W/m 16,1 km/h (3 Bft) 95,74 %
17.08.2019 18:00 19,8 C 18,3 C 17,8 C 89 % 1008,5 hPa 0,0 l/m 0 min 0 min 34 W/m 16,1 km/h (3 Bft) 97,83 %
17.08.2019 17:58 19,8 C 18,3 C 17,8 C 89 % 1008,5 hPa 0,0 l/m 0 min 0 min 38 W/m 12,9 km/h (3 Bft) 97,87 %
17.08.2019 17:56 19,9 C 18,3 C 17,8 C 90 % 1008,5 hPa 0,0 l/m 0 min 0 min 41 W/m 22,5 km/h (4 Bft) 95,74 %
17.08.2019 17:54 19,9 C 18,3 C 17,8 C 90 % 1008,5 hPa 0,0 l/m 0 min 0 min 50 W/m 25,7 km/h (4 Bft) 100,00 %
17.08.2019 17:52 19,9 C 18,9 C 17,8 C 90 % 1008,4 hPa 0,0 l/m 0 min 0 min 55 W/m 9,7 km/h (2 Bft) 100,00 %
17.08.2019 17:50 19,9 C 18,9 C 17,8 C 90 % 1008,5 hPa 0,0 l/m 0 min 0 min 62 W/m 9,7 km/h (2 Bft) 100,00 %
17.08.2019 17:48 19,8 C 18,9 C 17,8 C 90 % 1008,4 hPa 0,0 l/m 0 min 0 min 82 W/m 3,2 km/h (1 Bft) 100,00 %
17.08.2019 17:46 19,8 C 18,9 C 17,8 C 90 % 1008,3 hPa 0,0 l/m 0 min 0 min 114 W/m 12,9 km/h (3 Bft) 100,00 %
17.08.2019 17:44 19,8 C 18,3 C 17,8 C 90 % 1008,2 hPa 0,0 l/m 0 min 0 min 116 W/m 6,4 km/h (2 Bft) 100,00 %
17.08.2019 17:42 19,8 C 18,3 C 17,2 C 90 % 1008,1 hPa 0,0 l/m 0 min 0 min 101 W/m 16,1 km/h (3 Bft) 100,00 %
17.08.2019 17:40 19,9 C 18,3 C 17,2 C 90 % 1008,2 hPa 0,0 l/m 0 min 0 min 77 W/m 22,5 km/h (4 Bft) 97,87 %
17.08.2019 17:38 19,9 C 18,3 C 17,2 C 90 % 1008,2 hPa 0,0 l/m 0 min 0 min 58 W/m 16,1 km/h (3 Bft) 100,00 %
17.08.2019 17:36 19,9 C 17,8 C 17,2 C 90 % 1008,3 hPa 0,0 l/m 0 min 0 min 72 W/m 22,5 km/h (4 Bft) 100,00 %
17.08.2019 17:34 20,0 C 17,8 C 17,2 C 90 % 1008,3 hPa 0,0 l/m 0 min 0 min 102 W/m 29,0 km/h (5 Bft) 100,00 %
17.08.2019 17:32 20,1 C 17,8 C 17,8 C 90 % 1008,1 hPa 0,0 l/m 0 min 2 min 116 W/m 9,7 km/h (2 Bft) 100,00 %
17.08.2019 17:30 20,1 C 17,8 C 17,8 C 90 % 1008,0 hPa 0,0 l/m 0 min 2 min 127 W/m 25,7 km/h (4 Bft) 100,00 %
17.08.2019 17:28 20,2 C 18,3 C 17,8 C 90 % 1008,0 hPa 0,0 l/m 0 min 2 min 123 W/m 12,9 km/h (3 Bft) 100,00 %
17.08.2019 17:26 20,2 C 18,3 C 17,8 C 90 % 1008,1 hPa 0,0 l/m 0 min 2 min 100 W/m 12,9 km/h (3 Bft) 97,87 %
17.08.2019 17:24 20,2 C 18,3 C 17,8 C 90 % 1008,2 hPa 0,0 l/m 0 min 0 min 84 W/m 12,9 km/h (3 Bft) 100,00 %
17.08.2019 17:22 20,2 C 18,3 C 17,8 C 90 % 1008,3 hPa 0,0 l/m 0 min 0 min 83 W/m 6,4 km/h (2 Bft) 100,00 %
17.08.2019 17:20 20,2 C 17,8 C 17,8 C 90 % 1008,2 hPa 0,0 l/m 0 min 0 min 67 W/m 9,7 km/h (2 Bft) 97,87 %
17.08.2019 17:18 20,3 C 17,8 C 17,8 C 89 % 1008,2 hPa 0,0 l/m 0 min 0 min 52 W/m 3,2 km/h (1 Bft) 97,87 %
17.08.2019 17:16 20,3 C 17,8 C 17,8 C 89 % 1008,2 hPa 0,0 l/m 0 min 0 min 47 W/m 0,0 km/h (0 Bft) 97,87 %
17.08.2019 17:14 20,3 C 17,8 C 17,8 C 89 % 1008,3 hPa 0,0 l/m 0 min 0 min 39 W/m 0,0 km/h (0 Bft) 100,00 %
17.08.2019 17:12 20,3 C 17,8 C 17,8 C 89 % 1008,3 hPa 0,0 l/m 0 min 0 min 41 W/m 0,0 km/h (0 Bft) 100,00 %
17.08.2019 17:10 20,3 C 17,8 C 17,8 C 89 % 1008,3 hPa 0,2 l/m 0 min 2 min 41 W/m 6,4 km/h (2 Bft) 97,87 %
17.08.2019 17:08 20,4 C 17,8 C 17,8 C 89 % 1008,3 hPa 0,0 l/m 0 min 2 min 43 W/m 6,4 km/h (2 Bft) 97,87 %
17.08.2019 17:06 20,4 C 17,8 C 17,8 C 89 % 1008,4 hPa 0,0 l/m 0 min 2 min 46 W/m 6,4 km/h (2 Bft) 100,00 %
17.08.2019 17:04 20,4 C 17,8 C 17,8 C 88 % 1008,3 hPa 0,0 l/m 0 min 0 min 56 W/m 6,4 km/h (2 Bft) 100,00 %
17.08.2019 17:02 20,5 C 17,8 C 17,2 C 88 % 1008,3 hPa 0,0 l/m 0 min 2 min 78 W/m 6,4 km/h (2 Bft) 100,00 %
17.08.2019 17:00 20,6 C 17,8 C 17,8 C 88 % 1008,3 hPa 0,0 l/m 0 min 2 min 109 W/m 9,7 km/h (2 Bft) 100,00 %
17.08.2019 16:58 20,6 C 17,8 C 17,8 C 87 % 1008,3 hPa 0,0 l/m 0 min 2 min 122 W/m 9,7 km/h (2 Bft) 100,00 %
17.08.2019 16:56 20,7 C 17,8 C 17,2 C 87 % 1008,4 hPa 0,2 l/m 0 min 2 min 91 W/m 9,7 km/h (2 Bft) 100,00 %
17.08.2019 16:54 20,7 C 17,8 C 17,2 C 86 % 1008,3 hPa 0,0 l/m 0 min 0 min 79 W/m 16,1 km/h (3 Bft) 100,00 %
17.08.2019 16:52 20,8 C 17,8 C 17,2 C 86 % 1008,4 hPa 0,0 l/m 0 min 0 min 81 W/m 22,5 km/h (4 Bft) 100,00 %
17.08.2019 16:50 20,9 C 17,8 C 17,2 C 85 % 1008,4 hPa 0,0 l/m 0 min 2 min 82 W/m 12,9 km/h (3 Bft) 97,83 %
17.08.2019 16:48 21,0 C 17,2 C 17,2 C 85 % 1008,4 hPa 0,0 l/m 0 min 2 min 91 W/m 22,5 km/h (4 Bft) 100,00 %
17.08.2019 16:46 21,2 C 17,2 C 17,2 C 84 % 1008,4 hPa 0,0 l/m 0 min 2 min 84 W/m 19,3 km/h (3 Bft) 100,00 %
17.08.2019 16:44 21,3 C 17,8 C 17,2 C 83 % 1008,4 hPa 0,0 l/m 0 min 2 min 76 W/m 22,5 km/h (4 Bft) 100,00 %
17.08.2019 16:42 21,4 C 17,8 C 17,2 C 83 % 1008,5 hPa 0,0 l/m 0 min 2 min 96 W/m 25,7 km/h (4 Bft) 100,00 %
17.08.2019 16:40 21,5 C 17,8 C 17,2 C 82 % 1008,5 hPa 0,0 l/m 0 min 2 min 105 W/m 25,7 km/h (4 Bft) 100,00 %
17.08.2019 16:38 21,6 C 18,3 C 17,8 C 81 % 1008,3 hPa 0,0 l/m 0 min 2 min 125 W/m 16,1 km/h (3 Bft) 100,00 %
17.08.2019 16:36 21,7 C 17,8 C 17,8 C 80 % 1008,4 hPa 0,2 l/m 0 min 2 min 107 W/m 32,2 km/h (5 Bft) 100,00 %
17.08.2019 16:34 21,7 C 18,3 C 17,8 C 80 % 1008,4 hPa 0,0 l/m 0 min 2 min 86 W/m 32,2 km/h (5 Bft) 97,87 %
17.08.2019 16:32 21,8 C 18,9 C 18,3 C 79 % 1008,4 hPa 0,0 l/m 0 min 2 min 78 W/m 32,2 km/h (5 Bft) 100,00 %
17.08.2019 16:30 21,9 C 20,0 C 20,0 C 79 % 1008,4 hPa 0,0 l/m 0 min 2 min 89 W/m 29,0 km/h (5 Bft) 100,00 %
17.08.2019 16:28 21,9 C 21,1 C 20,6 C 78 % 1008,3 hPa 0,0 l/m 0 min 0 min 91 W/m 22,5 km/h (4 Bft) 97,87 %
17.08.2019 16:26 21,9 C 21,1 C 20,6 C 78 % 1008,1 hPa 0,0 l/m 0 min 0 min 110 W/m 25,7 km/h (4 Bft) 100,00 %
17.08.2019 16:24 21,9 C 21,1 C 21,1 C 78 % 1008,2 hPa 0,0 l/m 0 min 0 min 113 W/m 16,1 km/h (3 Bft) 97,87 %
17.08.2019 16:22 21,9 C 21,1 C 20,6 C 78 % 1008,2 hPa 0,0 l/m 0 min 0 min 93 W/m 16,1 km/h (3 Bft) 97,87 %
17.08.2019 16:20 22,0 C 21,1 C 20,6 C 78 % 1008,2 hPa 0,0 l/m 0 min 0 min 71 W/m 19,3 km/h (3 Bft) 95,74 %
17.08.2019 16:18 22,0 C 21,1 C 21,1 C 77 % 1008,1 hPa 0,0 l/m 0 min 0 min 75 W/m 16,1 km/h (3 Bft) 93,62 %
17.08.2019 16:16 22,1 C 21,1 C 21,1 C 77 % 1008,1 hPa 0,0 l/m 0 min 0 min 90 W/m 16,1 km/h (3 Bft) 93,62 %
17.08.2019 16:14 22,1 C 21,1 C 21,1 C 77 % 1008,1 hPa 0,0 l/m 0 min 0 min 107 W/m 22,5 km/h (4 Bft) 95,65 %
17.08.2019 16:12 22,1 C 21,1 C 21,1 C 77 % 1008,1 hPa 0,0 l/m 0 min 0 min 107 W/m 19,3 km/h (3 Bft) 93,62 %
17.08.2019 16:10 22,2 C 21,1 C 21,1 C 77 % 1008,2 hPa 0,0 l/m 0 min 0 min 102 W/m 32,2 km/h (5 Bft) 95,74 %
17.08.2019 16:08 22,2 C 21,1 C 21,1 C 77 % 1008,1 hPa 0,0 l/m 0 min 0 min 96 W/m 29,0 km/h (5 Bft) 95,74 %
17.08.2019 16:06 22,3 C 21,7 C 21,1 C 77 % 1008,1 hPa 0,0 l/m 0 min 0 min 98 W/m 25,7 km/h (4 Bft) 95,74 %
17.08.2019 16:04 22,4 C 21,7 C 21,1 C 77 % 1008,1 hPa 0,0 l/m 0 min 0 min 97 W/m 22,5 km/h (4 Bft) 95,65 %
17.08.2019 16:02 22,4 C 21,7 C 21,1 C 77 % 1008,1 hPa 0,0 l/m 0 min 0 min 82 W/m 25,7 km/h (4 Bft) 91,49 %
17.08.2019 16:00 22,4 C 21,7 C 21,1 C 77 % 1008,1 hPa 0,0 l/m 0 min 0 min 89 W/m 25,7 km/h (4 Bft) 93,62 %
17.08.2019 15:58 22,5 C 21,7 C 21,1 C 77 % 1008,2 hPa 0,0 l/m 0 min 0 min 92 W/m 16,1 km/h (3 Bft) 93,62 %
17.08.2019 15:56 22,5 C 21,7 C 21,1 C 77 % 1008,2 hPa 0,0 l/m 0 min 0 min 90 W/m 19,3 km/h (3 Bft) 95,74 %
17.08.2019 15:54 22,6 C 22,2 C 21,1 C 77 % 1008,2 hPa 0,0 l/m 0 min 0 min 95 W/m 19,3 km/h (3 Bft) 93,62 %
17.08.2019 15:52 22,6 C 22,2 C 21,7 C 77 % 1008,2 hPa 0,0 l/m 0 min 0 min 110 W/m 19,3 km/h (3 Bft) 95,65 %
17.08.2019 15:50 22,6 C 22,2 C 21,7 C 77 % 1008,1 hPa 0,0 l/m 0 min 0 min 121 W/m 9,7 km/h (2 Bft) 95,74 %
17.08.2019 15:48 22,6 C 22,2 C 21,7 C 77 % 1008,2 hPa 0,0 l/m 0 min 0 min 115 W/m 16,1 km/h (3 Bft) 95,74 %
17.08.2019 15:46 22,6 C 22,2 C 21,7 C 77 % 1008,2 hPa 0,0 l/m 0 min 0 min 115 W/m 16,1 km/h (3 Bft) 95,74 %
17.08.2019 15:44 22,6 C 22,8 C 21,7 C 77 % 1008,2 hPa 0,0 l/m 0 min 0 min 134 W/m 19,3 km/h (3 Bft) 95,74 %
17.08.2019 15:42 22,6 C 22,8 C 22,2 C 77 % 1008,2 hPa 0,0 l/m 0 min 0 min 195 W/m 16,1 km/h (3 Bft) 89,36 %
17.08.2019 15:40 22,5 C 22,8 C 22,2 C 77 % 1008,2 hPa 0,0 l/m 0 min 0 min 247 W/m 19,3 km/h (3 Bft) 97,83 %
17.08.2019 15:38 22,5 C 23,3 C 22,2 C 77 % 1008,2 hPa 0,0 l/m 0 min 0 min 251 W/m 22,5 km/h (4 Bft) 97,87 %
17.08.2019 15:36 22,4 C 23,9 C 22,8 C 77 % 1008,2 hPa 0,0 l/m 0 min 0 min 300 W/m 16,1 km/h (3 Bft) 97,87 %
17.08.2019 15:34 22,4 C 23,9 C 22,2 C 77 % 1008,2 hPa 0,0 l/m 2 min 0 min 429 W/m 16,1 km/h (3 Bft) 97,87 %
17.08.2019 15:32 22,4 C 23,9 C 22,2 C 77 % 1008,3 hPa 0,0 l/m 2 min 0 min 496 W/m 25,7 km/h (4 Bft) 93,62 %
17.08.2019 15:30 22,3 C 23,3 C 22,2 C 78 % 1008,3 hPa 0,0 l/m 2 min 0 min 352 W/m 29,0 km/h (5 Bft) 95,74 %
17.08.2019 15:28 22,3 C 23,3 C 22,2 C 78 % 1008,4 hPa 0,0 l/m 0 min 0 min 291 W/m 32,2 km/h (5 Bft) 95,65 %
17.08.2019 15:26 22,2 C 23,9 C 22,8 C 79 % 1008,4 hPa 0,0 l/m 2 min 0 min 406 W/m 22,5 km/h (4 Bft) 95,74 %
17.08.2019 15:24 22,2 C 25,0 C 22,8 C 79 % 1008,3 hPa 0,0 l/m 2 min 0 min 539 W/m 12,9 km/h (3 Bft) 97,87 %
17.08.2019 15:22 22,1 C 24,4 C 22,8 C 79 % 1008,3 hPa 0,0 l/m 2 min 0 min 463 W/m 19,3 km/h (3 Bft) 97,87 %
17.08.2019 15:20 21,9 C 23,9 C 22,2 C 79 % 1008,3 hPa 0,0 l/m 2 min 0 min 643 W/m 25,7 km/h (4 Bft) 97,87 %
17.08.2019 15:18 21,9 C 23,9 C 22,2 C 79 % 1008,5 hPa 0,0 l/m 2 min 0 min 501 W/m 29,0 km/h (5 Bft) 95,74 %
17.08.2019 15:16 21,8 C 23,3 C 22,2 C 80 % 1008,3 hPa 0,0 l/m 2 min 0 min 420 W/m 22,5 km/h (4 Bft) 95,65 %
17.08.2019 15:14 21,7 C 23,9 C 22,2 C 80 % 1008,3 hPa 0,0 l/m 2 min 0 min 428 W/m 22,5 km/h (4 Bft) 97,87 %
17.08.2019 15:12 21,7 C 24,4 C 22,2 C 80 % 1008,3 hPa 0,0 l/m 2 min 0 min 466 W/m 19,3 km/h (3 Bft) 97,87 %
17.08.2019 15:10 21,6 C 23,9 C 22,2 C 80 % 1008,3 hPa 0,0 l/m 2 min 0 min 436 W/m 19,3 km/h (3 Bft) 91,49 %
17.08.2019 15:08 21,5 C 23,3 C 22,2 C 80 % 1008,4 hPa 0,0 l/m 2 min 0 min 379 W/m 22,5 km/h (4 Bft) 95,74 %
17.08.2019 15:06 21,4 C 23,3 C 21,7 C 81 % 1008,3 hPa 0,0 l/m 0 min 0 min 318 W/m 19,3 km/h (3 Bft) 95,74 %
17.08.2019 15:04 21,4 C 22,8 C 21,7 C 81 % 1008,3 hPa 0,0 l/m 0 min 0 min 318 W/m 25,7 km/h (4 Bft) 97,83 %
17.08.2019 15:02 21,3 C 23,3 C 21,7 C 81 % 1008,3 hPa 0,0 l/m 0 min 0 min 353 W/m 25,7 km/h (4 Bft) 97,87 %
17.08.2019 15:00 21,2 C 22,8 C 21,7 C 81 % 1008,4 hPa 0,0 l/m 2 min 0 min 413 W/m 25,7 km/h (4 Bft) 97,87 %
17.08.2019 14:58 21,2 C 22,8 C 21,7 C 82 % 1008,3 hPa 0,0 l/m 0 min 0 min 359 W/m 12,9 km/h (3 Bft) 97,87 %
17.08.2019 14:56 21,1 C 22,2 C 21,1 C 82 % 1008,3 hPa 0,0 l/m 0 min 0 min 314 W/m 19,3 km/h (3 Bft) 97,87 %
17.08.2019 14:54 21,0 C 22,2 C 21,1 C 82 % 1008,4 hPa 0,0 l/m 0 min 0 min 275 W/m 19,3 km/h (3 Bft) 97,83 %
17.08.2019 14:52 21,0 C 21,7 C 21,1 C 82 % 1008,4 hPa 0,0 l/m 0 min 0 min 233 W/m 12,9 km/h (3 Bft) 97,87 %
17.08.2019 14:50 20,9 C 21,7 C 21,1 C 82 % 1008,4 hPa 0,0 l/m 0 min 0 min 270 W/m 22,5 km/h (4 Bft) 97,87 %
17.08.2019 14:48 20,9 C 21,7 C 20,6 C 82 % 1008,4 hPa 0,0 l/m 0 min 0 min 261 W/m 19,3 km/h (3 Bft) 97,87 %
17.08.2019 14:46 20,9 C 21,1 C 20,6 C 82 % 1008,3 hPa 0,0 l/m 0 min 0 min 252 W/m 25,7 km/h (4 Bft) 97,87 %
17.08.2019 14:44 20,8 C 21,1 C 20,6 C 82 % 1008,4 hPa 0,0 l/m 0 min 0 min 216 W/m 19,3 km/h (3 Bft) 95,74 %
17.08.2019 14:42 20,8 C 21,1 C 20,6 C 82 % 1008,4 hPa 0,0 l/m 0 min 0 min 201 W/m 19,3 km/h (3 Bft) 97,83 %
17.08.2019 14:40 20,8 C 21,1 C 20,6 C 82 % 1008,4 hPa 0,0 l/m 0 min 0 min 195 W/m 19,3 km/h (3 Bft) 97,87 %
17.08.2019 14:38 20,7 C 21,1 C 20,6 C 82 % 1008,4 hPa 0,0 l/m 0 min 0 min 211 W/m 25,7 km/h (4 Bft) 100,00 %
17.08.2019 14:36 20,7 C 21,1 C 20,6 C 82 % 1008,6 hPa 0,0 l/m 0 min 0 min 191 W/m 25,7 km/h (4 Bft) 100,00 %
17.08.2019 14:34 20,7 C 21,1 C 20,6 C 83 % 1008,6 hPa 0,0 l/m 0 min 0 min 207 W/m 16,1 km/h (3 Bft) 100,00 %
17.08.2019 14:32 20,7 C 21,1 C 20,0 C 83 % 1008,6 hPa 0,0 l/m 0 min 0 min 174 W/m 25,7 km/h (4 Bft) 100,00 %
17.08.2019 14:30 20,7 C 20,6 C 20,0 C 83 % 1008,6 hPa 0,0 l/m 0 min 0 min 167 W/m 16,1 km/h (3 Bft) 100,00 %
17.08.2019 14:28 20,6 C 20,6 C 20,0 C 83 % 1008,6 hPa 0,0 l/m 0 min 0 min 159 W/m 22,5 km/h (4 Bft) 100,00 %
17.08.2019 14:26 20,6 C 20,6 C 20,0 C 83 % 1008,6 hPa 0,0 l/m 0 min 0 min 147 W/m 22,5 km/h (4 Bft) 100,00 %
17.08.2019 14:24 20,6 C 20,0 C 20,0 C 83 % 1008,6 hPa 0,0 l/m 0 min 0 min 151 W/m 35,4 km/h (5 Bft) 100,00 %
17.08.2019 14:22 20,6 C 20,0 C 20,0 C 83 % 1008,6 hPa 0,0 l/m 0 min 0 min 157 W/m 19,3 km/h (3 Bft) 100,00 %
17.08.2019 14:20 20,6 C 20,0 C 19,4 C 84 % 1008,6 hPa 0,0 l/m 0 min 0 min 172 W/m 22,5 km/h (4 Bft) 100,00 %
17.08.2019 14:18 20,6 C 20,0 C 19,4 C 84 % 1008,6 hPa 0,0 l/m 0 min 0 min 224 W/m 29,0 km/h (5 Bft) 100,00 %
17.08.2019 14:16 20,6 C 20,0 C 19,4 C 84 % 1008,6 hPa 0,0 l/m 0 min 0 min 225 W/m 29,0 km/h (5 Bft) 100,00 %
17.08.2019 14:14 20,5 C 20,0 C 19,4 C 84 % 1008,6 hPa 0,0 l/m 0 min 0 min 248 W/m 19,3 km/h (3 Bft) 100,00 %
17.08.2019 14:12 20,5 C 20,0 C 19,4 C 85 % 1008,6 hPa 0,0 l/m 0 min 0 min 276 W/m 19,3 km/h (3 Bft) 100,00 %
17.08.2019 14:10 20,5 C 20,0 C 18,9 C 85 % 1008,7 hPa 0,0 l/m 0 min 0 min 239 W/m 19,3 km/h (3 Bft) 100,00 %
17.08.2019 14:08 20,5 C 20,0 C 18,9 C 85 % 1008,7 hPa 0,0 l/m 0 min 0 min 232 W/m 19,3 km/h (3 Bft) 100,00 %
17.08.2019 14:06 20,5 C 19,4 C 18,9 C 85 % 1008,8 hPa 0,0 l/m 0 min 0 min 214 W/m 22,5 km/h (4 Bft) 100,00 %
17.08.2019 14:04 20,5 C 20,0 C 18,9 C 85 % 1008,9 hPa 0,0 l/m 0 min 0 min 222 W/m 19,3 km/h (3 Bft) 97,87 %
17.08.2019 14:02 20,5 C 19,4 C 18,9 C 86 % 1008,9 hPa 0,0 l/m 0 min 0 min 275 W/m 19,3 km/h (3 Bft) 100,00 %
17.08.2019 14:00 20,5 C 19,4 C 18,9 C 85 % 1008,8 hPa 0,0 l/m 0 min 0 min 335 W/m 25,7 km/h (4 Bft) 97,87 %
17.08.2019 13:58 20,5 C 19,4 C 18,3 C 85 % 1008,7 hPa 0,0 l/m 0 min 0 min 340 W/m 22,5 km/h (4 Bft) 100,00 %
17.08.2019 13:56 20,5 C 19,4 C 18,3 C 85 % 1008,7 hPa 0,0 l/m 0 min 0 min 359 W/m 29,0 km/h (5 Bft) 97,83 %
17.08.2019 13:54 20,6 C 18,9 C 18,3 C 86 % 1008,7 hPa 0,0 l/m 0 min 0 min 362 W/m 25,7 km/h (4 Bft) 100,00 %
17.08.2019 13:52 20,6 C 18,9 C 18,3 C 86 % 1008,7 hPa 0,0 l/m 0 min 0 min 355 W/m 19,3 km/h (3 Bft) 95,74 %
17.08.2019 13:50 20,6 C 18,9 C 18,3 C 86 % 1008,6 hPa 0,0 l/m 0 min 0 min 328 W/m 16,1 km/h (3 Bft) 97,87 %
17.08.2019 13:48 20,6 C 18,9 C 17,8 C 85 % 1008,6 hPa 0,0 l/m 0 min 0 min 280 W/m 19,3 km/h (3 Bft) 97,87 %
17.08.2019 13:46 20,7 C 18,3 C 17,8 C 85 % 1008,7 hPa 0,0 l/m 0 min 2 min 308 W/m 12,9 km/h (3 Bft) 95,74 %
17.08.2019 13:44 20,7 C 18,3 C 17,8 C 84 % 1008,8 hPa 0,0 l/m 0 min 2 min 307 W/m 9,7 km/h (2 Bft) 95,65 %
17.08.2019 13:42 20,7 C 17,8 C 17,2 C 83 % 1008,7 hPa 0,2 l/m 0 min 2 min 254 W/m 19,3 km/h (3 Bft) 95,74 %
17.08.2019 13:40 20,8 C 18,3 C 17,8 C 83 % 1008,8 hPa 0,0 l/m 0 min 2 min 194 W/m 22,5 km/h (4 Bft) 97,87 %
17.08.2019 13:38 20,8 C 18,9 C 18,3 C 82 % 1008,8 hPa 0,0 l/m 0 min 2 min 168 W/m 12,9 km/h (3 Bft) 97,87 %
17.08.2019 13:36 20,8 C 18,9 C 18,3 C 81 % 1008,8 hPa 0,0 l/m 0 min 2 min 142 W/m 22,5 km/h (4 Bft) 97,87 %
17.08.2019 13:34 20,8 C 18,9 C 18,3 C 81 % 1008,8 hPa 0,0 l/m 0 min 2 min 158 W/m 16,1 km/h (3 Bft) 97,87 %
17.08.2019 13:32 20,8 C 19,4 C 19,4 C 80 % 1008,8 hPa 0,0 l/m 0 min 2 min 144 W/m 19,3 km/h (3 Bft) 97,83 %
17.08.2019 13:30 20,8 C 20,0 C 20,0 C 80 % 1008,9 hPa 0,0 l/m 0 min 0 min 123 W/m 16,1 km/h (3 Bft) 95,74 %
17.08.2019 13:28 20,8 C 20,0 C 20,0 C 80 % 1008,9 hPa 0,0 l/m 0 min 0 min 122 W/m 16,1 km/h (3 Bft) 97,87 %
17.08.2019 13:26 20,9 C 20,6 C 20,0 C 80 % 1008,9 hPa 0,0 l/m 0 min 0 min 141 W/m 16,1 km/h (3 Bft) 97,87 %
17.08.2019 13:24 20,9 C 20,6 C 20,0 C 80 % 1008,8 hPa 0,0 l/m 0 min 0 min 143 W/m 19,3 km/h (3 Bft) 93,62 %
17.08.2019 13:22 20,9 C 20,6 C 20,6 C 80 % 1008,9 hPa 0,0 l/m 0 min 0 min 144 W/m 19,3 km/h (3 Bft) 97,87 %
17.08.2019 13:20 20,9 C 21,1 C 20,6 C 80 % 1008,8 hPa 0,0 l/m 0 min 0 min 169 W/m 19,3 km/h (3 Bft) 97,83 %
17.08.2019 13:18 20,9 C 21,1 C 20,6 C 80 % 1008,8 hPa 0,0 l/m 0 min 0 min 179 W/m 12,9 km/h (3 Bft) 97,87 %
17.08.2019 13:16 20,9 C 21,1 C 20,6 C 80 % 1008,7 hPa 0,0 l/m 0 min 0 min 190 W/m 12,9 km/h (3 Bft) 97,87 %
17.08.2019 13:14 20,9 C 21,1 C 20,6 C 80 % 1008,7 hPa 0,0 l/m 0 min 0 min 237 W/m 19,3 km/h (3 Bft) 97,87 %
17.08.2019 13:12 20,9 C 21,1 C 20,6 C 80 % 1008,7 hPa 0,0 l/m 0 min 0 min 325 W/m 29,0 km/h (5 Bft) 97,87 %
17.08.2019 13:10 20,9 C 21,1 C 20,6 C 80 % 1008,8 hPa 0,0 l/m 0 min 0 min 262 W/m 22,5 km/h (4 Bft) 97,87 %
17.08.2019 13:08 20,9 C 21,1 C 20,6 C 80 % 1008,7 hPa 0,0 l/m 0 min 0 min 187 W/m 19,3 km/h (3 Bft) 97,83 %
17.08.2019 13:06 20,9 C 21,1 C 20,6 C 80 % 1008,7 hPa 0,0 l/m 0 min 0 min 195 W/m 16,1 km/h (3 Bft) 100,00 %
17.08.2019 13:04 20,9 C 21,1 C 20,6 C 80 % 1008,6 hPa 0,0 l/m 0 min 0 min 235 W/m 22,5 km/h (4 Bft) 100,00 %
17.08.2019 13:02 20,9 C 21,1 C 20,6 C 79 % 1008,5 hPa 0,0 l/m 0 min 0 min 236 W/m 22,5 km/h (4 Bft) 100,00 %
17.08.2019 13:00 20,9 C 21,7 C 20,6 C 80 % 1008,5 hPa 0,0 l/m 0 min 0 min 252 W/m 25,7 km/h (4 Bft) 100,00 %
17.08.2019 12:58 20,9 C 21,7 C 20,6 C 79 % 1008,5 hPa 0,0 l/m 0 min 0 min 270 W/m 16,1 km/h (3 Bft) 100,00 %
17.08.2019 12:56 20,9 C 21,1 C 20,6 C 79 % 1008,7 hPa 0,0 l/m 0 min 0 min 255 W/m 16,1 km/h (3 Bft) 95,65 %
17.08.2019 12:54 20,9 C 20,6 C 20,6 C 79 % 1008,7 hPa 0,0 l/m 0 min 0 min 275 W/m 25,7 km/h (4 Bft) 97,87 %
17.08.2019 12:52 20,9 C 20,6 C 20,0 C 78 % 1008,8 hPa 0,0 l/m 0 min 0 min 222 W/m 35,4 km/h (5 Bft) 97,87 %
17.08.2019 12:50 21,0 C 20,0 C 20,0 C 78 % 1008,8 hPa 0,0 l/m 0 min 0 min 142 W/m 25,7 km/h (4 Bft) 97,87 %
17.08.2019 12:48 21,1 C 20,0 C 20,0 C 78 % 1008,8 hPa 0,0 l/m 0 min 0 min 121 W/m 22,5 km/h (4 Bft) 97,87 %
17.08.2019 12:46 21,2 C 20,0 C 20,0 C 78 % 1008,7 hPa 0,0 l/m 0 min 0 min 106 W/m 32,2 km/h (5 Bft) 97,83 %
17.08.2019 12:44 21,2 C 20,0 C 20,0 C 77 % 1008,8 hPa 0,0 l/m 0 min 0 min 102 W/m 29,0 km/h (5 Bft) 97,87 %
17.08.2019 12:42 21,3 C 20,6 C 20,0 C 77 % 1008,7 hPa 0,0 l/m 0 min 0 min 111 W/m 19,3 km/h (3 Bft) 97,87 %
17.08.2019 12:40 21,3 C 20,6 C 20,6 C 77 % 1008,8 hPa 0,0 l/m 0 min 0 min 106 W/m 25,7 km/h (4 Bft) 97,87 %
17.08.2019 12:38 21,3 C 20,6 C 20,6 C 77 % 1008,8 hPa 0,0 l/m 0 min 0 min 131 W/m 16,1 km/h (3 Bft) 97,87 %
17.08.2019 12:36 21,4 C 21,1 C 21,1 C 77 % 1008,8 hPa 0,0 l/m 0 min 0 min 178 W/m 25,7 km/h (4 Bft) 95,74 %
17.08.2019 12:34 21,4 C 21,7 C 21,7 C 78 % 1008,7 hPa 0,0 l/m 0 min 0 min 248 W/m 19,3 km/h (3 Bft) 97,83 %
17.08.2019 12:32 21,4 C 22,8 C 21,7 C 78 % 1008,6 hPa 0,0 l/m 0 min 0 min 371 W/m 29,0 km/h (5 Bft) 95,74 %
17.08.2019 12:30 21,3 C 23,3 C 22,2 C 79 % 1008,5 hPa 0,0 l/m 2 min 0 min 458 W/m 19,3 km/h (3 Bft) 97,87 %
17.08.2019 12:28 21,2 C 23,9 C 22,2 C 79 % 1008,6 hPa 0,0 l/m 2 min 0 min 494 W/m 19,3 km/h (3 Bft) 95,74 %
17.08.2019 12:26 21,2 C 23,3 C 21,7 C 78 % 1008,6 hPa 0,0 l/m 2 min 0 min 687 W/m 32,2 km/h (5 Bft) 97,87 %
17.08.2019 12:24 21,1 C 22,8 C 21,7 C 79 % 1008,8 hPa 0,0 l/m 2 min 0 min 537 W/m 32,2 km/h (5 Bft) 95,74 %
17.08.2019 12:22 21,1 C 23,3 C 21,7 C 79 % 1008,7 hPa 0,0 l/m 2 min 0 min 440 W/m 16,1 km/h (3 Bft) 97,83 %
17.08.2019 12:20 21,0 C 22,2 C 21,1 C 79 % 1008,7 hPa 0,0 l/m 0 min 0 min 366 W/m 25,7 km/h (4 Bft) 95,74 %
17.08.2019 12:18 21,0 C 22,8 C 21,7 C 79 % 1008,7 hPa 0,0 l/m 2 min 0 min 381 W/m 25,7 km/h (4 Bft) 95,74 %
17.08.2019 12:16 21,0 C 22,2 C 21,1 C 79 % 1008,6 hPa 0,0 l/m 0 min 0 min 340 W/m 22,5 km/h (4 Bft) 95,74 %
17.08.2019 12:14 20,9 C 22,2 C 21,1 C 79 % 1008,7 hPa 0,0 l/m 0 min 0 min 361 W/m 22,5 km/h (4 Bft) 93,62 %
17.08.2019 12:12 20,9 C 22,2 C 21,1 C 79 % 1008,7 hPa 0,0 l/m 0 min 0 min 318 W/m 19,3 km/h (3 Bft) 95,74 %
17.08.2019 12:10 20,9 C 22,2 C 21,7 C 79 % 1008,6 hPa 0,0 l/m 0 min 0 min 351 W/m 25,7 km/h (4 Bft) 95,65 %
17.08.2019 12:08 20,8 C 22,8 C 21,7 C 79 % 1008,6 hPa 0,0 l/m 4 min 0 min 393 W/m 22,5 km/h (4 Bft) 94,68 %
17.08.2019 12:04 20,7 C 22,8 C 21,7 C 79 % 1008,7 hPa 0,0 l/m 2 min 0 min 467 W/m 29,0 km/h (5 Bft) 91,49 %
17.08.2019 12:02 20,6 C 23,9 C 21,7 C 80 % 1008,7 hPa 0,0 l/m 2 min 0 min 499 W/m 9,7 km/h (2 Bft) 91,49 %
17.08.2019 12:00 20,6 C 22,2 C 20,6 C 79 % 1008,7 hPa 0,0 l/m 2 min 0 min 382 W/m 19,3 km/h (3 Bft) 97,87 %
17.08.2019 11:58 20,6 C 21,1 C 20,0 C 79 % 1008,8 hPa 0,0 l/m 0 min 0 min 324 W/m 16,1 km/h (3 Bft) 95,65 %
17.08.2019 11:56 20,6 C 21,1 C 20,0 C 79 % 1008,8 hPa 0,0 l/m 0 min 0 min 276 W/m 16,1 km/h (3 Bft) 97,87 %
17.08.2019 11:54 20,6 C 21,1 C 20,0 C 79 % 1008,9 hPa 0,0 l/m 0 min 0 min 236 W/m 9,7 km/h (2 Bft) 93,62 %
17.08.2019 11:52 20,6 C 20,6 C 20,0 C 79 % 1008,9 hPa 0,0 l/m 0 min 0 min 229 W/m 9,7 km/h (2 Bft) 95,74 %
17.08.2019 11:50 20,6 C 20,6 C 20,0 C 78 % 1008,8 hPa 0,0 l/m 0 min 0 min 253 W/m 12,9 km/h (3 Bft) 97,87 %
17.08.2019 11:48 20,6 C 21,1 C 20,0 C 78 % 1008,8 hPa 0,0 l/m 0 min 0 min 225 W/m 12,9 km/h (3 Bft) 97,87 %
17.08.2019 11:46 20,6 C 20,6 C 20,0 C 78 % 1008,7 hPa 0,0 l/m 0 min 0 min 229 W/m 16,1 km/h (3 Bft) 95,65 %
17.08.2019 11:44 20,6 C 20,6 C 20,0 C 77 % 1008,7 hPa 0,0 l/m 0 min 0 min 237 W/m 16,1 km/h (3 Bft) 95,74 %
17.08.2019 11:42 20,7 C 20,6 C 20,0 C 77 % 1008,7 hPa 0,0 l/m 0 min 0 min 214 W/m 16,1 km/h (3 Bft) 95,74 %
17.08.2019 11:40 20,7 C 20,6 C 20,0 C 77 % 1008,7 hPa 0,0 l/m 0 min 0 min 175 W/m 16,1 km/h (3 Bft) 97,87 %
17.08.2019 11:38 20,8 C 20,6 C 20,0 C 77 % 1008,7 hPa 0,0 l/m 0 min 0 min 141 W/m 16,1 km/h (3 Bft) 97,87 %
17.08.2019 11:36 20,8 C 20,6 C 20,0 C 77 % 1008,8 hPa 0,0 l/m 0 min 0 min 150 W/m 16,1 km/h (3 Bft) 95,65 %
17.08.2019 11:34 20,8 C 20,6 C 20,0 C 77 % 1008,7 hPa 0,0 l/m 0 min 0 min 181 W/m 19,3 km/h (3 Bft) 97,87 %
17.08.2019 11:32 20,7 C 21,1 C 20,0 C 76 % 1008,6 hPa 0,0 l/m 0 min 0 min 189 W/m 22,5 km/h (4 Bft) 97,87 %
17.08.2019 11:30 20,7 C 21,1 C 20,0 C 76 % 1008,6 hPa 0,0 l/m 0 min 0 min 210 W/m 16,1 km/h (3 Bft) 97,87 %
17.08.2019 11:28 20,7 C 21,1 C 20,6 C 76 % 1008,6 hPa 0,0 l/m 0 min 0 min 236 W/m 22,5 km/h (4 Bft) 100,00 %
17.08.2019 11:26 20,7 C 21,1 C 20,6 C 76 % 1008,6 hPa 0,0 l/m 0 min 0 min 238 W/m 12,9 km/h (3 Bft) 97,87 %
17.08.2019 11:24 20,7 C 21,1 C 20,0 C 76 % 1008,5 hPa 0,0 l/m 0 min 0 min 242 W/m 25,7 km/h (4 Bft) 100,00 %
17.08.2019 11:22 20,7 C 21,1 C 20,0 C 76 % 1008,5 hPa 0,0 l/m 0 min 0 min 218 W/m 16,1 km/h (3 Bft) 97,87 %
17.08.2019 11:20 20,7 C 21,1 C 20,0 C 76 % 1008,6 hPa 0,0 l/m 0 min 0 min 203 W/m 19,3 km/h (3 Bft) 97,87 %
17.08.2019 11:18 20,6 C 21,1 C 20,0 C 76 % 1008,4 hPa 0,0 l/m 0 min 0 min 207 W/m 22,5 km/h (4 Bft) 97,87 %
17.08.2019 11:16 20,6 C 21,1 C 20,6 C 77 % 1008,4 hPa 0,0 l/m 0 min 0 min 234 W/m 22,5 km/h (4 Bft) 97,87 %
17.08.2019 11:14 20,6 C 21,7 C 20,6 C 77 % 1008,5 hPa 0,0 l/m 0 min 0 min 256 W/m 9,7 km/h (2 Bft) 97,87 %
17.08.2019 11:12 20,5 C 21,7 C 20,6 C 76 % 1008,4 hPa 0,0 l/m 0 min 0 min 228 W/m 9,7 km/h (2 Bft) 97,83 %
17.08.2019 11:10 20,5 C 21,1 C 20,0 C 76 % 1008,4 hPa 0,0 l/m 0 min 0 min 233 W/m 16,1 km/h (3 Bft) 97,87 %
17.08.2019 11:08 20,4 C 21,1 C 20,0 C 76 % 1008,4 hPa 0,0 l/m 0 min 0 min 217 W/m 19,3 km/h (3 Bft) 95,74 %
17.08.2019 11:06 20,4 C 21,1 C 20,0 C 76 % 1008,5 hPa 0,0 l/m 0 min 0 min 223 W/m 25,7 km/h (4 Bft) 95,74 %
17.08.2019 11:04 20,4 C 21,1 C 20,0 C 76 % 1008,4 hPa 0,0 l/m 0 min 0 min 197 W/m 9,7 km/h (2 Bft) 97,87 %
17.08.2019 11:02 20,3 C 20,6 C 20,0 C 76 % 1008,5 hPa 0,0 l/m 0 min 0 min 169 W/m 29,0 km/h (5 Bft) 95,74 %
17.08.2019 11:00 20,3 C 20,6 C 20,0 C 76 % 1008,5 hPa 0,0 l/m 0 min 0 min 164 W/m 25,7 km/h (4 Bft) 97,83 %
17.08.2019 10:58 20,3 C 20,6 C 19,4 C 76 % 1008,4 hPa 0,0 l/m 0 min 0 min 163 W/m 22,5 km/h (4 Bft) 97,87 %
17.08.2019 10:56 20,2 C 20,0 C 19,4 C 77 % 1008,5 hPa 0,0 l/m 0 min 0 min 142 W/m 25,7 km/h (4 Bft) 95,74 %
17.08.2019 10:54 20,2 C 20,0 C 19,4 C 77 % 1008,4 hPa 0,0 l/m 0 min 0 min 143 W/m 19,3 km/h (3 Bft) 97,87 %
17.08.2019 10:52 20,2 C 20,0 C 19,4 C 77 % 1008,5 hPa 0,0 l/m 0 min 0 min 129 W/m 25,7 km/h (4 Bft) 95,74 %
17.08.2019 10:50 20,2 C 20,0 C 19,4 C 77 % 1008,5 hPa 0,0 l/m 0 min 0 min 130 W/m 25,7 km/h (4 Bft) 97,87 %
17.08.2019 10:48 20,2 C 20,0 C 19,4 C 78 % 1008,4 hPa 0,0 l/m 0 min 0 min 116 W/m 25,7 km/h (4 Bft) 95,65 %
17.08.2019 10:46 20,1 C 20,0 C 19,4 C 78 % 1008,3 hPa 0,0 l/m 0 min 0 min 75 W/m 19,3 km/h (3 Bft) 95,74 %
17.08.2019 10:44 20,1 C 20,0 C 19,4 C 78 % 1008,4 hPa 0,0 l/m 0 min 0 min 78 W/m 19,3 km/h (3 Bft) 97,87 %
17.08.2019 10:42 20,1 C 20,0 C 19,4 C 79 % 1008,5 hPa 0,0 l/m 0 min 0 min 81 W/m 19,3 km/h (3 Bft) 97,87 %
17.08.2019 10:40 20,0 C 20,6 C 20,0 C 80 % 1008,3 hPa 0,0 l/m 0 min 0 min 112 W/m 12,9 km/h (3 Bft) 97,87 %
17.08.2019 10:38 19,9 C 20,6 C 20,0 C 80 % 1008,3 hPa 0,0 l/m 0 min 0 min 150 W/m 16,1 km/h (3 Bft) 100,00 %
17.08.2019 10:36 19,8 C 20,6 C 20,0 C 80 % 1008,3 hPa 0,0 l/m 0 min 0 min 174 W/m 19,3 km/h (3 Bft) 100,00 %
17.08.2019 10:34 19,8 C 20,6 C 20,0 C 81 % 1008,3 hPa 0,0 l/m 0 min 0 min 182 W/m 16,1 km/h (3 Bft) 100,00 %
17.08.2019 10:32 19,8 C 20,6 C 19,4 C 82 % 1008,4 hPa 0,0 l/m 0 min 0 min 166 W/m 12,9 km/h (3 Bft) 97,87 %
17.08.2019 10:30 19,7 C 20,0 C 19,4 C 82 % 1008,5 hPa 0,0 l/m 0 min 0 min 137 W/m 25,7 km/h (4 Bft) 100,00 %
17.08.2019 10:28 19,7 C 20,0 C 19,4 C 83 % 1008,6 hPa 0,0 l/m 0 min 0 min 129 W/m 19,3 km/h (3 Bft) 100,00 %
17.08.2019 10:26 19,6 C 20,0 C 19,4 C 83 % 1008,5 hPa 0,0 l/m 0 min 0 min 135 W/m 9,7 km/h (2 Bft) 97,83 %
17.08.2019 10:24 19,6 C 20,6 C 19,4 C 83 % 1008,5 hPa 0,0 l/m 0 min 0 min 131 W/m 9,7 km/h (2 Bft) 100,00 %
17.08.2019 10:22 19,5 C 20,6 C 19,4 C 84 % 1008,5 hPa 0,0 l/m 0 min 0 min 138 W/m 12,9 km/h (3 Bft) 100,00 %
17.08.2019 10:20 19,5 C 20,6 C 19,4 C 84 % 1008,5 hPa 0,0 l/m 0 min 0 min 139 W/m 9,7 km/h (2 Bft) 100,00 %
17.08.2019 10:18 19,4 C 20,6 C 20,0 C 84 % 1008,6 hPa 0,0 l/m 0 min 0 min 171 W/m 9,7 km/h (2 Bft) 100,00 %
17.08.2019 10:16 19,4 C 20,6 C 19,4 C 85 % 1008,5 hPa 0,0 l/m 0 min 0 min 197 W/m 9,7 km/h (2 Bft) 100,00 %
17.08.2019 10:14 19,3 C 20,6 C 19,4 C 85 % 1008,6 hPa 0,0 l/m 0 min 0 min 210 W/m 6,4 km/h (2 Bft) 100,00 %
17.08.2019 10:12 19,3 C 21,1 C 19,4 C 85 % 1008,5 hPa 0,0 l/m 0 min 0 min 204 W/m 6,4 km/h (2 Bft) 100,00 %
17.08.2019 10:10 19,3 C 20,6 C 19,4 C 85 % 1008,5 hPa 0,0 l/m 0 min 0 min 176 W/m 6,4 km/h (2 Bft) 100,00 %
17.08.2019 10:08 19,2 C 20,6 C 19,4 C 85 % 1008,5 hPa 0,0 l/m 0 min 0 min 192 W/m 6,4 km/h (2 Bft) 100,00 %
17.08.2019 10:06 19,2 C 20,6 C 19,4 C 85 % 1008,5 hPa 0,0 l/m 0 min 0 min 205 W/m 9,7 km/h (2 Bft) 100,00 %
17.08.2019 10:04 19,1 C 20,0 C 18,9 C 85 % 1008,6 hPa 0,0 l/m 0 min 0 min 204 W/m 9,7 km/h (2 Bft) 97,87 %
17.08.2019 10:02 19,1 C 19,4 C 18,9 C 85 % 1008,6 hPa 0,0 l/m 0 min 0 min 165 W/m 12,9 km/h (3 Bft) 100,00 %
17.08.2019 10:00 19,1 C 20,0 C 18,9 C 85 % 1008,6 hPa 0,0 l/m 0 min 0 min 170 W/m 9,7 km/h (2 Bft) 100,00 %
17.08.2019 09:58 19,1 C 19,4 C 18,9 C 85 % 1008,6 hPa 0,0 l/m 0 min 0 min 146 W/m 9,7 km/h (2 Bft) 100,00 %
17.08.2019 09:56 19,0 C 19,4 C 18,9 C 85 % 1008,6 hPa 0,0 l/m 0 min 0 min 131 W/m 6,4 km/h (2 Bft) 100,00 %
17.08.2019 09:54 19,0 C 19,4 C 18,9 C 85 % 1008,7 hPa 0,0 l/m 0 min 0 min 158 W/m 9,7 km/h (2 Bft) 100,00 %
17.08.2019 09:52 18,9 C 19,4 C 18,9 C 85 % 1008,7 hPa 0,0 l/m 0 min 0 min 153 W/m 9,7 km/h (2 Bft) 100,00 %
17.08.2019 09:50 18,9 C 19,4 C 18,9 C 85 % 1008,6 hPa 0,0 l/m 0 min 0 min 136 W/m 12,9 km/h (3 Bft) 100,00 %
17.08.2019 09:48 18,9 C 19,4 C 18,9 C 85 % 1008,5 hPa 0,0 l/m 0 min 0 min 188 W/m 12,9 km/h (3 Bft) 100,00 %
17.08.2019 09:46 18,8 C 19,4 C 18,9 C 85 % 1008,6 hPa 0,0 l/m 0 min 0 min 186 W/m 6,4 km/h (2 Bft) 100,00 %
17.08.2019 09:44 18,8 C 19,4 C 18,3 C 85 % 1008,6 hPa 0,0 l/m 0 min 0 min 187 W/m 9,7 km/h (2 Bft) 100,00 %
17.08.2019 09:42 18,8 C 19,4 C 18,3 C 85 % 1008,6 hPa 0,0 l/m 0 min 0 min 173 W/m 9,7 km/h (2 Bft) 100,00 %
17.08.2019 09:40 18,8 C 19,4 C 18,3 C 85 % 1008,6 hPa 0,0 l/m 0 min 0 min 157 W/m 9,7 km/h (2 Bft) 100,00 %
17.08.2019 09:38 18,7 C 18,9 C 18,3 C 85 % 1008,6 hPa 0,0 l/m 0 min 0 min 147 W/m 9,7 km/h (2 Bft) 100,00 %
17.08.2019 09:36 18,7 C 18,9 C 18,3 C 85 % 1008,6 hPa 0,0 l/m 0 min 0 min 135 W/m 9,7 km/h (2 Bft) 100,00 %
17.08.2019 09:34 18,7 C 18,9 C 18,3 C 85 % 1008,6 hPa 0,0 l/m 0 min 0 min 125 W/m 6,4 km/h (2 Bft) 97,87 %
17.08.2019 09:32 18,7 C 18,9 C 18,3 C 85 % 1008,6 hPa 0,0 l/m 0 min 0 min 125 W/m 16,1 km/h (3 Bft) 97,87 %
17.08.2019 09:30 18,7 C 18,9 C 18,3 C 85 % 1008,5 hPa 0,0 l/m 0 min 0 min 118 W/m 6,4 km/h (2 Bft) 95,74 %
17.08.2019 09:28 18,7 C 18,9 C 17,8 C 85 % 1008,5 hPa 0,0 l/m 0 min 0 min 89 W/m 6,4 km/h (2 Bft) 97,87 %
17.08.2019 09:26 18,6 C 18,9 C 17,8 C 85 % 1008,5 hPa 0,0 l/m 0 min 0 min 83 W/m 6,4 km/h (2 Bft) 97,87 %
17.08.2019 09:24 18,6 C 18,3 C 17,8 C 85 % 1008,5 hPa 0,0 l/m 0 min 0 min 92 W/m 9,7 km/h (2 Bft) 97,83 %
17.08.2019 09:22 18,6 C 18,3 C 17,8 C 85 % 1008,6 hPa 0,0 l/m 0 min 0 min 89 W/m 9,7 km/h (2 Bft) 97,87 %
17.08.2019 09:20 18,6 C 18,3 C 17,8 C 85 % 1008,5 hPa 0,0 l/m 0 min 0 min 97 W/m 12,9 km/h (3 Bft) 95,74 %
17.08.2019 09:18 18,6 C 18,9 C 17,8 C 85 % 1008,5 hPa 0,0 l/m 0 min 0 min 116 W/m 9,7 km/h (2 Bft) 97,87 %
17.08.2019 09:16 18,6 C 18,9 C 18,3 C 85 % 1008,5 hPa 0,0 l/m 0 min 0 min 128 W/m 12,9 km/h (3 Bft) 93,62 %
17.08.2019 09:14 18,6 C 18,9 C 17,8 C 85 % 1008,5 hPa 0,0 l/m 0 min 0 min 145 W/m 12,9 km/h (3 Bft) 95,74 %
17.08.2019 09:12 18,5 C 18,9 C 17,8 C 85 % 1008,5 hPa 0,0 l/m 0 min 0 min 144 W/m 9,7 km/h (2 Bft) 91,30 %
17.08.2019 09:10 18,5 C 18,3 C 17,8 C 84 % 1008,5 hPa 0,0 l/m 0 min 0 min 112 W/m 16,1 km/h (3 Bft) 95,74 %
17.08.2019 09:08 18,5 C 18,3 C 17,8 C 84 % 1008,5 hPa 0,0 l/m 0 min 0 min 85 W/m 16,1 km/h (3 Bft) 95,74 %
17.08.2019 09:06 18,5 C 18,3 C 17,8 C 85 % 1008,5 hPa 0,0 l/m 0 min 0 min 83 W/m 16,1 km/h (3 Bft) 93,62 %
17.08.2019 09:04 18,4 C 18,3 C 17,8 C 85 % 1008,5 hPa 0,0 l/m 0 min 0 min 103 W/m 9,7 km/h (2 Bft) 95,74 %
17.08.2019 09:02 18,5 C 18,3 C 17,8 C 85 % 1008,5 hPa 0,0 l/m 0 min 0 min 122 W/m 12,9 km/h (3 Bft) 93,62 %
17.08.2019 09:00 18,4 C 17,8 C 17,8 C 85 % 1008,5 hPa 0,0 l/m 0 min 0 min 102 W/m 16,1 km/h (3 Bft) 93,48 %
17.08.2019 08:58 18,4 C 17,8 C 17,8 C 85 % 1008,4 hPa 0,0 l/m 0 min 0 min 94 W/m 16,1 km/h (3 Bft) 93,62 %
17.08.2019 08:56 18,4 C 17,8 C 17,8 C 84 % 1008,4 hPa 0,0 l/m 0 min 2 min 104 W/m 9,7 km/h (2 Bft) 95,74 %
17.08.2019 08:54 18,4 C 18,3 C 17,8 C 84 % 1008,4 hPa 0,0 l/m 0 min 0 min 108 W/m 16,1 km/h (3 Bft) 95,74 %
17.08.2019 08:52 18,4 C 18,3 C 17,8 C 84 % 1008,4 hPa 0,0 l/m 0 min 0 min 113 W/m 25,7 km/h (4 Bft) 93,62 %
17.08.2019 08:50 18,4 C 18,3 C 17,8 C 84 % 1008,4 hPa 0,0 l/m 0 min 0 min 141 W/m 16,1 km/h (3 Bft) 93,62 %
17.08.2019 08:48 18,4 C 18,3 C 17,8 C 84 % 1008,4 hPa 0,0 l/m 0 min 0 min 134 W/m 29,0 km/h (5 Bft) 93,48 %
17.08.2019 08:46 18,4 C 18,3 C 17,2 C 84 % 1008,4 hPa 0,0 l/m 0 min 0 min 99 W/m 16,1 km/h (3 Bft) 93,62 %
17.08.2019 08:44 18,4 C 17,8 C 17,2 C 84 % 1008,4 hPa 0,0 l/m 0 min 0 min 92 W/m 22,5 km/h (4 Bft) 93,62 %
17.08.2019 08:42 18,4 C 17,8 C 17,2 C 83 % 1008,3 hPa 0,0 l/m 0 min 0 min 95 W/m 22,5 km/h (4 Bft) 91,49 %
17.08.2019 08:40 18,4 C 17,8 C 17,2 C 83 % 1008,3 hPa 0,0 l/m 0 min 0 min 99 W/m 19,3 km/h (3 Bft) 91,49 %
17.08.2019 08:38 18,4 C 17,8 C 17,2 C 83 % 1008,3 hPa 0,0 l/m 0 min 0 min 100 W/m 19,3 km/h (3 Bft) 91,49 %
17.08.2019 08:36 18,5 C 17,8 C 17,2 C 83 % 1008,4 hPa 0,0 l/m 0 min 0 min 88 W/m 16,1 km/h (3 Bft) 95,65 %
17.08.2019 08:34 18,5 C 17,8 C 17,2 C 83 % 1008,4 hPa 0,0 l/m 0 min 0 min 81 W/m 19,3 km/h (3 Bft) 95,74 %
17.08.2019 08:32 18,6 C 17,8 C 17,2 C 82 % 1008,4 hPa 0,0 l/m 0 min 0 min 74 W/m 25,7 km/h (4 Bft) 95,74 %
17.08.2019 08:30 18,6 C 17,8 C 17,2 C 82 % 1008,4 hPa 0,0 l/m 0 min 0 min 69 W/m 16,1 km/h (3 Bft) 93,62 %
17.08.2019 08:28 18,6 C 17,2 C 17,2 C 82 % 1008,5 hPa 0,0 l/m 0 min 0 min 59 W/m 19,3 km/h (3 Bft) 93,62 %
17.08.2019 08:26 18,6 C 17,8 C 17,2 C 82 % 1008,4 hPa 0,0 l/m 0 min 0 min 44 W/m 16,1 km/h (3 Bft) 95,65 %
17.08.2019 08:24 18,7 C 17,8 C 17,2 C 81 % 1008,4 hPa 0,0 l/m 0 min 0 min 41 W/m 22,5 km/h (4 Bft) 95,74 %
17.08.2019 08:22 18,7 C 17,8 C 17,2 C 81 % 1008,5 hPa 0,0 l/m 0 min 0 min 45 W/m 25,7 km/h (4 Bft) 93,62 %
17.08.2019 08:20 18,7 C 17,8 C 17,2 C 81 % 1008,5 hPa 0,0 l/m 0 min 0 min 50 W/m 25,7 km/h (4 Bft) 97,87 %
17.08.2019 08:18 18,7 C 17,8 C 17,2 C 81 % 1008,5 hPa 0,0 l/m 0 min 0 min 62 W/m 22,5 km/h (4 Bft) 97,87 %
17.08.2019 08:16 18,8 C 17,8 C 17,2 C 81 % 1008,4 hPa 0,0 l/m 0 min 0 min 76 W/m 38,6 km/h (5 Bft) 97,87 %
17.08.2019 08:14 18,8 C 17,8 C 17,8 C 80 % 1008,5 hPa 0,0 l/m 0 min 0 min 74 W/m 22,5 km/h (4 Bft) 97,83 %
17.08.2019 08:12 18,7 C 18,3 C 17,8 C 80 % 1008,5 hPa 0,0 l/m 0 min 0 min 78 W/m 22,5 km/h (4 Bft) 97,87 %
17.08.2019 08:10 18,7 C 18,3 C 17,8 C 80 % 1008,5 hPa 0,0 l/m 0 min 0 min 75 W/m 32,2 km/h (5 Bft) 97,87 %
17.08.2019 08:08 18,7 C 18,3 C 17,8 C 80 % 1008,4 hPa 0,0 l/m 0 min 0 min 64 W/m 19,3 km/h (3 Bft) 97,87 %
17.08.2019 08:06 18,6 C 18,3 C 17,8 C 80 % 1008,4 hPa 0,0 l/m 0 min 0 min 52 W/m 19,3 km/h (3 Bft) 100,00 %
17.08.2019 08:04 18,6 C 18,3 C 17,8 C 80 % 1008,4 hPa 0,0 l/m 0 min 0 min 42 W/m 41,8 km/h (6 Bft) 100,00 %
17.08.2019 08:02 18,4 C 18,3 C 17,8 C 81 % 1008,4 hPa 0,0 l/m 0 min 0 min 39 W/m 25,7 km/h (4 Bft) 97,83 %
17.08.2019 08:00 18,4 C 18,3 C 17,8 C 81 % 1008,4 hPa 0,0 l/m 0 min 0 min 43 W/m 22,5 km/h (4 Bft) 100,00 %
_ Min-Zeit 06:54 04:34 05:22 10:58 17:28 - - - - 17:12 15:42
Minimum _ 14,3 C 13,3 C 12,8 C 76 % 1008,0 hPa - - - - 0,0 km/h (0 Bft) 89,36 %
_ Max-Zeit 15:42 15:24 15:22 06:28 04:42 02:44 12:08 00:08 12:26 08:04 08:00
Maximum _ 22,6 C 25,0 C 22,8 C 97 % 1014,6 hPa 0,4 l/m 4 min 4 min 687 W/m 41,8 km/h
O-SO (6 Bft)
100,00 %
Durchschnitt _ 19,2 C 18,4 C 17,8 C 86 % 1010,8 hPa #11,0 l/m #0 min. #5:54 h 5 W/m 14,6 km/h (3 Bft) 97,63 %
© 2019 W. Hausmann